M I D A S
Marine Information and Data Acquisition System
Tripno 419 of the Zeeleeuw from 2003-01-24 08:17:28 to 2003-01-24 12:49:23
Back to CruiseResearch ActivitiesStationsMapUnderway DataData graphs

EquipmentUnitsComment
TimeDGPSUTC
LatitudeDGPSDM.mWGS84
LongitudeDGPSDM.mWGS84
TemperatureSBE03/SBE38deg celciusITS90
ConductivitySBE21S/mITS90
SalinitySBE21 Practical Salinity Units
ChlorophylAChelsea fluorimeterg/lCalibrated in Aceton
Missing or incorrect values are displayed as -999
Sea surface data collected by the RV Zeeleeuw from 2003-01-24 08:17:28 to 2003-01-24 12:49:23
                                                                                    Next 1000 lines
Time Latitude Longitude Temperature Conductivity Salinity ChlorophylA
2003-01-24 08:17:34 51°13.602 2°56.071 -999 2.068133 13.453611 -0.814958
2003-01-24 08:17:39 51°13.604 2°56.065 -999 2.068238 13.45414 -0.848668
2003-01-24 08:17:44 51°13.606 2°56.058 -999 2.068133 13.453395 -0.882377
2003-01-24 08:17:49 51°13.608 2°56.051 -999 2.068133 13.453395 -0.882377
2003-01-24 08:17:54 51°13.609 2°56.043 -999 2.068133 13.453179 -0.882377
2003-01-24 08:17:59 51°13.611 2°56.036 -999 2.068133 13.453395 -0.848668
2003-01-24 08:18:04 51°13.614 2°56.028 -999 2.068028 13.45265 -0.848668
2003-01-24 08:18:09 51°13.616 2°56.019 -999 2.068133 13.453395 -0.848668
2003-01-24 08:18:13 51°13.617 2°56.013 -999 2.068028 13.452865 -0.814958
2003-01-24 08:18:19 51°13.62 2°56.003 -999 2.068028 13.452865 -0.814958
2003-01-24 08:18:23 51°13.621 2°55.996 -999 2.068133 13.453611 -0.848668
2003-01-24 08:18:29 51°13.624 2°55.986 -999 2.068028 13.45265 -0.882377
2003-01-24 08:18:33 51°13.626 2°55.979 -999 2.068028 13.45265 -0.882377
2003-01-24 08:18:39 51°13.629 2°55.969 -999 2.068028 13.452865 -0.848668
2003-01-24 08:18:43 51°13.631 2°55.962 -999 2.068028 13.452865 -0.848668
2003-01-24 08:18:49 51°13.633 2°55.951 -999 2.068028 13.452865 -0.848668
2003-01-24 08:18:53 51°13.635 2°55.944 -999 2.068028 13.452865 -0.848668
2003-01-24 08:18:59 51°13.638 2°55.933 -999 2.067923 13.452336 -0.848668
2003-01-24 08:19:03 51°13.641 2°55.926 -999 2.067923 13.452336 -0.848668
2003-01-24 08:19:09 51°13.644 2°55.916 -999 2.067923 13.45212 -0.848668
2003-01-24 08:19:14 51°13.647 2°55.907 -999 2.067923 13.452336 -0.848668
2003-01-24 08:19:19 51°13.65 2°55.898 -999 2.067923 13.452336 -0.848668
2003-01-24 08:19:23 51°13.652 2°55.89 -999 2.067923 13.452552 -0.848668
2003-01-24 08:19:29 51°13.655 2°55.88 -999 2.068028 13.453081 -0.848668
2003-01-24 08:19:32 51°13.657 2°55.875 -999 2.067923 13.452552 -0.848668
2003-01-24 08:19:41 51°13.662 2°55.859 -999 2.067923 13.452767 -0.848668
2003-01-24 08:19:45 51°13.664 2°55.852 -999 2.067923 13.452767 -0.882377
2003-01-24 08:19:51 51°13.667 2°55.842 -999 2.067923 13.452767 -0.882377
2003-01-24 08:19:55 51°13.669 2°55.835 -999 2.067923 13.452983 -0.814958
2003-01-24 08:20:01 51°13.672 2°55.825 -999 2.067923 13.452983 -0.814958
2003-01-24 08:20:04 51°13.674 2°55.82 -999 2.067923 13.452983 -0.848668
2003-01-24 08:20:11 51°13.677 2°55.808 -999 2.067923 13.453199 -0.848668
2003-01-24 08:20:16 51°13.68 2°55.8 -999 2.067923 13.452983 -0.848668
2003-01-24 08:20:21 51°13.682 2°55.792 -999 2.067818 13.452454 -0.882377
2003-01-24 08:20:26 51°13.684 2°55.784 -999 2.067818 13.452454 -0.848668
2003-01-24 08:20:31 51°13.686 2°55.778 -999 2.067818 13.452454 -0.848668
2003-01-24 08:20:35 51°13.687 2°55.773 -999 2.067818 13.452454 -0.848668
2003-01-24 08:20:41 51°13.688 2°55.767 -999 2.067818 13.452454 -0.848668
2003-01-24 08:20:45 51°13.689 2°55.764 -999 2.067818 13.452238 -0.848668
2003-01-24 08:20:51 51°13.69 2°55.76 -999 2.067818 13.452454 -0.848668
2003-01-24 08:20:55 51°13.69 2°55.757 -999 2.067818 13.452669 -0.848668
2003-01-24 08:21:01 51°13.691 2°55.755 -999 2.067818 13.452669 -0.848668
2003-01-24 08:21:04 51°13.692 2°55.754 -999 2.067818 13.452885 -0.848668
2003-01-24 08:21:13 51°13.692 2°55.752 -999 2.067818 13.452885 -0.848668
2003-01-24 08:21:17 51°13.693 2°55.752 -999 2.067818 13.453101 -0.814958
2003-01-24 08:21:23 51°13.694 2°55.752 -999 2.067818 13.453101 -0.848668
2003-01-24 08:21:29 51°13.695 2°55.753 -999 2.067818 13.453317 -0.848668
2003-01-24 08:21:33 51°13.696 2°55.754 -999 2.067818 13.453101 -0.814958
2003-01-24 08:21:38 51°13.697 2°55.755 -999 2.067818 13.453317 -0.882377
2003-01-24 08:21:43 51°13.698 2°55.757 -999 2.067818 13.453317 -0.882377
2003-01-24 08:21:48 51°13.7 2°55.758 -999 2.067818 13.453317 -0.848668
2003-01-24 08:21:53 51°13.702 2°55.759 -999 2.067818 13.453532 -0.814958
2003-01-24 08:21:58 51°13.704 2°55.761 -999 2.067818 13.453317 -0.848668
2003-01-24 08:22:03 51°13.706 2°55.762 -999 2.067818 13.453317 -0.848668
2003-01-24 08:22:08 51°13.709 2°55.763 -999 2.067818 13.453317 -0.814958
2003-01-24 08:22:13 51°13.712 2°55.764 -999 2.067818 13.453317 -0.814958
2003-01-24 08:22:18 51°13.715 2°55.764 -999 2.067818 13.453101 -0.814958
2003-01-24 08:22:23 51°13.718 2°55.764 -999 2.067818 13.453317 -0.882377
2003-01-24 08:22:28 51°13.722 2°55.763 -999 2.067818 13.453101 -0.848668
2003-01-24 08:22:31 51°13.724 2°55.763 -999 2.067818 13.453101 -0.848668
2003-01-24 08:22:37 51°13.727 2°55.761 -999 2.067818 13.453101 -0.848668
2003-01-24 08:22:41 51°13.73 2°55.761 -999 2.067818 13.453101 -0.848668
2003-01-24 08:22:47 51°13.732 2°55.759 -999 2.067818 13.453101 -0.882377
2003-01-24 08:22:53 51°13.733 2°55.759 -999 2.067923 13.453846 -0.814958
2003-01-24 08:22:58 51°13.732 2°55.758 -999 2.067923 13.45363 -0.882377
2003-01-24 08:23:03 51°13.731 2°55.758 -999 2.067923 13.453415 -0.848668
2003-01-24 08:23:07 51°13.73 2°55.759 -999 2.067923 13.45363 -0.848668
2003-01-24 08:23:13 51°13.728 2°55.76 -999 2.067923 13.45363 -0.848668
2003-01-24 08:23:17 51°13.725 2°55.761 -999 2.067923 13.453846 -0.848668
2003-01-24 08:23:23 51°13.722 2°55.762 -999 2.067923 13.453415 -0.814958
2003-01-24 08:23:27 51°13.72 2°55.763 -999 2.067923 13.453199 -0.814958
2003-01-24 08:23:33 51°13.718 2°55.764 -999 2.067923 13.453199 -0.848668
2003-01-24 08:23:37 51°13.716 2°55.765 -999 2.067818 13.452238 -0.882377
2003-01-24 08:23:43 51°13.714 2°55.766 -999 2.067818 13.452238 -0.882377
2003-01-24 08:23:47 51°13.714 2°55.766 -999 2.067818 13.452022 -0.848668
2003-01-24 08:23:53 51°13.713 2°55.765 -999 2.067818 13.451806 -0.848668
2003-01-24 08:23:58 51°13.713 2°55.765 -999 2.067713 13.451493 -0.882377
2003-01-24 08:24:03 51°13.714 2°55.764 -999 2.067713 13.451493 -0.814958
2003-01-24 08:24:08 51°13.714 2°55.762 -999 2.067713 13.451924 -0.814958
2003-01-24 08:24:13 51°13.716 2°55.76 -999 2.067713 13.451924 -0.814958
2003-01-24 08:24:17 51°13.717 2°55.758 -999 2.067713 13.45214 -0.848668
2003-01-24 08:24:23 51°13.72 2°55.754 -999 2.067608 13.451179 -0.848668
2003-01-24 08:24:27 51°13.723 2°55.75 -999 2.067608 13.451179 -0.814958
2003-01-24 08:24:33 51°13.727 2°55.744 -999 2.067713 13.451708 -0.848668
2003-01-24 08:24:37 51°13.731 2°55.739 -999 2.067608 13.451395 -0.781249
2003-01-24 08:24:41 51°13.735 2°55.734 -999 2.067608 13.451395 -0.781249
2003-01-24 08:24:48 51°13.742 2°55.724 -999 2.067608 13.451395 -0.814958
2003-01-24 08:24:53 51°13.748 2°55.716 -999 2.067608 13.451826 -0.848668
2003-01-24 08:24:57 51°13.753 2°55.71 -999 2.067608 13.451826 -0.848668
2003-01-24 08:25:02 51°13.759 2°55.701 -999 2.067608 13.451826 -0.848668
2003-01-24 08:25:07 51°13.766 2°55.693 -999 2.067608 13.452042 -0.848668
2003-01-24 08:25:13 51°13.775 2°55.683 -999 2.067608 13.452042 -0.848668
2003-01-24 08:25:17 51°13.781 2°55.676 -999 2.067608 13.452042 -0.848668
2003-01-24 08:25:22 51°13.788 2°55.668 -999 2.067608 13.452042 -0.848668
2003-01-24 08:25:27 51°13.797 2°55.661 -999 2.067608 13.452042 -0.814958
2003-01-24 08:25:32 51°13.805 2°55.654 -999 2.067608 13.452042 -0.848668
2003-01-24 08:25:38 51°13.816 2°55.646 -999 2.067713 13.452787 -0.814958
2003-01-24 08:25:43 51°13.824 2°55.639 -999 2.067713 13.452787 -0.814958
2003-01-24 08:25:48 51°13.833 2°55.632 -999 2.067608 13.452042 -0.814958
2003-01-24 08:25:53 51°13.842 2°55.626 -999 2.067608 13.452258 -0.848668
2003-01-24 08:25:57 51°13.849 2°55.62 -999 2.067608 13.452258 -0.848668
2003-01-24 08:26:03 51°13.86 2°55.612 -999 2.067608 13.452258 -0.814958
2003-01-24 08:26:08 51°13.869 2°55.606 -999 2.067608 13.452905 -0.848668
2003-01-24 08:26:13 51°13.878 2°55.599 -999 2.067608 13.452905 -0.848668
2003-01-24 08:26:18 51°13.887 2°55.593 -999 2.067608 13.453121 -0.814958
2003-01-24 08:26:23 51°13.896 2°55.586 -999 2.067608 13.453121 -0.848668
2003-01-24 08:26:28 51°13.905 2°55.579 -999 2.067608 13.453121 -0.882377
2003-01-24 08:26:33 51°13.913 2°55.572 -999 2.067608 13.453336 -0.848668
2003-01-24 08:26:38 51°13.922 2°55.565 -999 2.067608 13.453768 -0.848668
2003-01-24 08:26:43 51°13.931 2°55.558 -999 2.067608 13.453768 -0.848668
2003-01-24 08:26:47 51°13.939 2°55.553 -999 2.067503 13.452807 -0.848668
2003-01-24 08:26:53 51°13.949 2°55.545 -999 2.067608 13.453552 -0.882377
2003-01-24 08:26:58 51°13.959 2°55.538 -999 2.067503 13.452591 -0.848668
2003-01-24 08:27:03 51°13.968 2°55.532 -999 2.067503 13.453023 -0.882377
2003-01-24 08:27:07 51°13.976 2°55.526 -999 2.067503 13.453023 -0.848668
2003-01-24 08:27:13 51°13.987 2°55.518 -999 2.067503 13.453023 -0.848668
2003-01-24 08:27:17 51°13.995 2°55.513 -999 2.067608 13.453768 -0.848668
2003-01-24 08:27:23 51°14.006 2°55.505 -999 2.067608 13.453552 -0.848668
2003-01-24 08:27:28 51°14.016 2°55.499 -999 2.067503 13.453023 -0.882377
2003-01-24 08:27:33 51°14.025 2°55.493 -999 2.067503 13.453023 -0.848668
2003-01-24 08:27:37 51°14.032 2°55.488 -999 2.067608 13.453768 -0.848668
2003-01-24 08:27:43 51°14.043 2°55.481 -999 2.067608 13.453768 -0.848668
2003-01-24 08:27:48 51°14.051 2°55.474 -999 2.067503 13.453023 -0.882377
2003-01-24 08:27:53 51°14.06 2°55.468 -999 2.067503 13.453023 -0.848668
2003-01-24 08:27:58 51°14.069 2°55.461 -999 2.067503 13.453023 -0.848668
2003-01-24 08:28:03 51°14.077 2°55.454 -999 2.067398 13.452493 -0.848668
2003-01-24 08:28:08 51°14.086 2°55.448 -999 2.067503 13.453023 -0.848668
2003-01-24 08:28:13 51°14.095 2°55.441 -999 2.067503 13.453023 -0.848668
2003-01-24 08:28:18 51°14.104 2°55.434 -999 2.067503 13.452807 -0.848668
2003-01-24 08:28:23 51°14.113 2°55.427 -999 2.067503 13.452807 -0.882377
2003-01-24 08:28:25 51°14.117 2°55.425 -999 2.067398 13.452277 -0.882377
2003-01-24 08:28:33 51°14.131 2°55.413 -999 2.067503 13.453023 -0.848668
2003-01-24 08:28:38 51°14.14 2°55.406 -999 2.067398 13.452277 -0.848668
2003-01-24 08:28:43 51°14.149 2°55.399 -999 2.067398 13.452277 -0.848668
2003-01-24 08:28:47 51°14.157 2°55.393 -999 2.067503 13.453238 -0.848668
2003-01-24 08:28:53 51°14.168 2°55.383 -999 2.067293 13.451748 -0.848668
2003-01-24 08:28:57 51°14.175 2°55.377 -999 2.067503 13.453238 -0.848668
2003-01-24 08:29:03 51°14.185 2°55.367 -999 2.067398 13.452709 -0.814958
2003-01-24 08:29:08 51°14.194 2°55.358 -999 2.067293 13.451748 -0.848668
2003-01-24 08:29:13 51°14.203 2°55.35 -999 2.067293 13.451748 -0.848668
2003-01-24 08:29:18 51°14.212 2°55.341 -999 2.067398 13.452493 -0.848668
2003-01-24 08:29:23 51°14.22 2°55.332 -999 2.067398 13.452925 -0.882377
2003-01-24 08:29:27 51°14.227 2°55.325 -999 2.067398 13.452709 -0.848668
2003-01-24 08:29:33 51°14.237 2°55.314 -999 2.067188 13.451434 -0.848668
2003-01-24 08:29:37 51°14.244 2°55.306 -999 2.067293 13.451963 -0.848668
2003-01-24 08:29:43 51°14.253 2°55.294 -999 2.067293 13.451963 -0.848668
2003-01-24 08:29:48 51°14.262 2°55.284 -999 2.067188 13.451218 -0.848668
2003-01-24 08:29:53 51°14.27 2°55.274 -999 2.067608 13.4542 -0.882377
2003-01-24 08:29:58 51°14.277 2°55.263 -999 2.067398 13.45314 -0.848668
2003-01-24 08:30:03 51°14.285 2°55.252 -999 2.067293 13.452395 -0.848668
2003-01-24 08:30:08 51°14.292 2°55.241 -999 2.067293 13.451963 -0.848668
2003-01-24 08:30:13 51°14.299 2°55.23 -999 2.067293 13.451963 -0.848668
2003-01-24 08:30:18 51°14.306 2°55.218 -999 2.067188 13.451218 -0.814958
2003-01-24 08:30:23 51°14.313 2°55.206 -999 2.067293 13.451963 -0.848668
2003-01-24 08:30:27 51°14.318 2°55.196 -999 2.067398 13.45314 -0.814958
2003-01-24 08:30:33 51°14.326 2°55.18 -999 2.066978 13.449943 -0.848668
2003-01-24 08:30:37 51°14.33 2°55.17 -999 2.067188 13.451865 -0.848668
2003-01-24 08:30:43 51°14.337 2°55.154 -999 2.067188 13.451865 -0.848668
2003-01-24 08:30:48 51°14.343 2°55.14 -999 2.066768 13.448452 -0.848668
2003-01-24 08:30:53 51°14.348 2°55.126 -999 2.067083 13.450688 -0.848668
2003-01-24 08:30:57 51°14.352 2°55.114 -999 2.066978 13.449943 -0.882377
2003-01-24 08:31:03 51°14.359 2°55.095 -999 2.067398 13.452925 -0.848668
2003-01-24 08:31:07 51°14.364 2°55.081 -999 2.067923 13.456652 -0.848668
2003-01-24 08:31:13 51°14.371 2°55.06 -999 2.067923 13.456652 -0.848668
2003-01-24 08:31:17 51°14.376 2°55.045 -999 2.067398 13.452925 -0.848668
2003-01-24 08:31:23 51°14.383 2°55.021 -999 2.066348 13.444824 -0.848668
2003-01-24 08:31:27 51°14.388 2°55.005 -999 2.067503 13.453454 -0.848668
2003-01-24 08:31:33 51°14.395 2°54.979 -999 2.066348 13.44504 -0.848668
2003-01-24 08:31:38 51°14.399 2°54.956 -999 2.067083 13.450257 -0.848668
2003-01-24 08:31:43 51°14.404 2°54.933 -999 2.067083 13.450257 -0.848668
2003-01-24 08:31:48 51°14.408 2°54.909 -999 2.066663 13.447276 -0.848668
2003-01-24 08:31:53 51°14.411 2°54.884 -999 2.066663 13.447491 -0.848668
2003-01-24 08:31:58 51°14.413 2°54.858 -999 2.066978 13.449943 -0.882377
2003-01-24 08:32:03 51°14.413 2°54.831 -999 2.066978 13.450375 -0.848668
2003-01-24 08:32:08 51°14.414 2°54.804 -999 2.067083 13.450904 -0.882377
2003-01-24 08:32:12 51°14.415 2°54.782 -999 2.067083 13.450904 -0.882377
2003-01-24 08:32:18 51°14.416 2°54.748 -999 2.066663 13.447923 -0.848668
2003-01-24 08:32:23 51°14.418 2°54.72 -999 2.066768 13.448668 -0.814958
2003-01-24 08:32:28 51°14.418 2°54.691 -999 2.067083 13.450904 -0.814958
2003-01-24 08:32:33 51°14.42 2°54.663 -999 2.067293 13.452827 -0.848668
2003-01-24 08:32:37 51°14.421 2°54.64 -999 2.067083 13.450904 -0.848668
2003-01-24 08:32:43 51°14.424 2°54.606 -999 2.067083 13.450904 -0.848668
2003-01-24 08:32:48 51°14.425 2°54.577 -999 2.066348 13.446334 -0.848668
2003-01-24 08:32:53 51°14.427 2°54.548 -999 2.067083 13.45112 -0.848668
2003-01-24 08:32:57 51°14.428 2°54.525 -999 2.066768 13.448668 -0.848668
2003-01-24 08:33:03 51°14.43 2°54.491 -999 2.067188 13.452081 -0.848668
2003-01-24 08:33:08 51°14.431 2°54.462 -999 2.066768 13.4491 -0.848668
2003-01-24 08:33:13 51°14.433 2°54.433 -999 2.066768 13.4491 -0.848668
2003-01-24 08:33:17 51°14.434 2°54.41 -999 2.067398 13.453572 -0.848668
2003-01-24 08:33:23 51°14.436 2°54.375 -999 2.067188 13.451865 -0.848668
2003-01-24 08:33:28 51°14.437 2°54.347 -999 2.066978 13.450806 -0.848668
2003-01-24 08:33:33 51°14.436 2°54.319 -999 2.067083 13.451983 -0.848668
2003-01-24 08:33:37 51°14.435 2°54.296 -999 2.067083 13.452415 -0.848668
2003-01-24 08:33:43 51°14.43 2°54.264 -999 2.067083 13.452415 -0.848668
2003-01-24 08:33:48 51°14.424 2°54.238 -999 2.066978 13.451885 -0.848668
2003-01-24 08:33:53 51°14.417 2°54.213 -999 2.066978 13.452317 -0.848668
2003-01-24 08:33:57 51°14.411 2°54.193 -999 2.066768 13.451042 -0.848668
2003-01-24 08:34:03 51°14.402 2°54.163 -999 2.066873 13.452219 -0.848668
2003-01-24 08:34:07 51°14.396 2°54.143 -999 2.066663 13.449865 -0.848668
2003-01-24 08:34:13 51°14.387 2°54.112 -999 2.066663 13.449865 -0.848668
2003-01-24 08:34:18 51°14.38 2°54.086 -999 2.066978 13.452964 -0.882377
2003-01-24 08:34:23 51°14.373 2°54.061 -999 2.066768 13.451042 -0.848668
2003-01-24 08:34:28 51°14.365 2°54.035 -999 2.066558 13.449767 -0.848668
2003-01-24 08:34:33 51°14.358 2°54.009 -999 2.066768 13.451042 -0.814958
2003-01-24 08:34:38 51°14.35 2°53.984 -999 2.066873 13.451787 -0.814958
2003-01-24 08:34:43 51°14.342 2°53.959 -999 2.066873 13.451787 -0.814958
2003-01-24 08:34:47 51°14.336 2°53.938 -999 2.067293 13.455201 -0.882377
2003-01-24 08:34:53 51°14.327 2°53.907 -999 2.066873 13.451571 -0.814958
2003-01-24 08:34:57 51°14.321 2°53.887 -999 2.067083 13.453062 -0.848668
2003-01-24 08:35:03 51°14.312 2°53.856 -999 2.066768 13.450826 -0.848668
2003-01-24 08:35:08 51°14.304 2°53.83 -999 2.066873 13.451787 -0.848668
2003-01-24 08:35:13 51°14.296 2°53.804 -999 2.066873 13.451787 -0.848668
2003-01-24 08:35:18 51°14.288 2°53.779 -999 2.066768 13.450826 -0.882377
2003-01-24 08:35:23 51°14.28 2°53.753 -999 2.067293 13.454769 -0.848668
2003-01-24 08:35:28 51°14.271 2°53.728 -999 2.067083 13.453494 -0.848668
2003-01-24 08:35:33 51°14.264 2°53.702 -999 2.066768 13.451042 -0.848668
2003-01-24 08:35:38 51°14.254 2°53.677 -999 2.067293 13.454338 -0.848668
2003-01-24 08:35:43 51°14.247 2°53.651 -999 2.067293 13.454338 -0.848668
2003-01-24 08:35:48 51°14.238 2°53.625 -999 2.066873 13.452219 -0.814958
2003-01-24 08:35:53 51°14.23 2°53.6 -999 2.066873 13.452219 -0.848668
2003-01-24 08:35:58 51°14.223 2°53.574 -999 2.066768 13.451042 -0.882377
2003-01-24 08:36:03 51°14.214 2°53.548 -999 2.066873 13.451571 -0.848668
2003-01-24 08:36:07 51°14.208 2°53.527 -999 2.067188 13.454887 -0.814958
2003-01-24 08:36:12 51°14.199 2°53.501 -999 2.067188 13.454887 -0.814958
2003-01-24 08:36:18 51°14.19 2°53.469 -999 2.066558 13.449982 -0.848668
2003-01-24 08:36:23 51°14.181 2°53.443 -999 2.067188 13.454671 -0.848668
2003-01-24 08:36:28 51°14.173 2°53.416 -999 2.066768 13.451258 -0.814958
2003-01-24 08:36:33 51°14.165 2°53.39 -999 2.066978 13.45318 -0.848668
2003-01-24 08:36:37 51°14.159 2°53.369 -999 2.066978 13.453828 -0.814958
2003-01-24 08:36:43 51°14.149 2°53.336 -999 2.066978 13.453828 -0.814958
2003-01-24 08:36:48 51°14.141 2°53.31 -999 2.066453 13.449668 -0.848668
2003-01-24 08:36:53 51°14.133 2°53.283 -999 2.066978 13.453612 -0.848668
2003-01-24 08:36:57 51°14.126 2°53.262 -999 2.066768 13.452337 -0.848668
2003-01-24 08:37:03 51°14.115 2°53.23 -999 2.066768 13.452337 -0.848668
2003-01-24 08:37:07 51°14.108 2°53.209 -999 2.066873 13.453082 -0.848668
2003-01-24 08:37:13 51°14.098 2°53.177 -999 2.066873 13.453082 -0.848668
2003-01-24 08:37:18 51°14.089 2°53.151 -999 2.066663 13.451375 -0.848668
2003-01-24 08:37:23 51°14.081 2°53.124 -999 2.066873 13.452867 -0.848668
2003-01-24 08:37:28 51°14.072 2°53.098 -999 2.066978 13.45426 -0.882377
2003-01-24 08:37:33 51°14.064 2°53.071 -999 2.066873 13.452867 -0.848668
2003-01-24 08:37:38 51°14.055 2°53.045 -999 2.066978 13.453612 -0.848668
2003-01-24 08:37:43 51°14.046 2°53.019 -999 2.066978 13.453612 -0.848668
2003-01-24 08:37:48 51°14.038 2°52.992 -999 2.066663 13.451807 -0.848668
2003-01-24 08:37:53 51°14.028 2°52.965 -999 2.066873 13.453946 -0.882377
2003-01-24 08:37:57 51°14.022 2°52.944 -999 2.066558 13.451277 -0.814958
2003-01-24 08:38:02 51°14.013 2°52.917 -999 2.066978 13.454476 -0.848668
2003-01-24 08:38:08 51°14.003 2°52.885 -999 2.066453 13.450316 -0.848668
2003-01-24 08:38:13 51°13.994 2°52.858 -999 2.066453 13.450316 -0.848668
2003-01-24 08:38:18 51°13.986 2°52.831 -999 2.066978 13.45426 -0.848668
2003-01-24 08:38:23 51°13.977 2°52.805 -999 2.066768 13.452984 -0.848668
2003-01-24 08:38:28 51°13.969 2°52.778 -999 2.066768 13.452984 -0.848668
2003-01-24 08:38:33 51°13.961 2°52.751 -999 2.066663 13.452239 -0.848668
2003-01-24 08:38:37 51°13.954 2°52.729 -999 2.066663 13.452455 -0.882377
2003-01-24 08:38:43 51°13.944 2°52.697 -999 2.066663 13.452455 -0.882377
2003-01-24 08:38:47 51°13.937 2°52.675 -999 2.066873 13.45373 -0.848668
2003-01-24 08:38:53 51°13.927 2°52.644 -999 2.066663 13.452671 -0.848668
2003-01-24 08:38:57 51°13.92 2°52.623 -999 2.066873 13.454378 -0.848668
2003-01-24 08:39:03 51°13.91 2°52.59 -999 2.066453 13.450532 -0.848668
2003-01-24 08:39:08 51°13.902 2°52.563 -999 2.066663 13.452239 -0.814958
2003-01-24 08:39:13 51°13.893 2°52.537 -999 2.066663 13.452239 -0.814958
2003-01-24 08:39:17 51°13.886 2°52.516 -999 2.066453 13.450963 -0.848668
2003-01-24 08:39:23 51°13.875 2°52.484 -999 2.066873 13.454378 -0.882377
2003-01-24 08:39:27 51°13.869 2°52.463 -999 2.066558 13.451925 -0.848668
2003-01-24 08:39:33 51°13.857 2°52.431 -999 2.066663 13.452239 -0.882377
2003-01-24 08:39:37 51°13.85 2°52.41 -999 2.066663 13.453102 -0.848668
2003-01-24 08:39:43 51°13.839 2°52.378 -999 2.066663 13.453102 -0.848668
2003-01-24 08:39:48 51°13.83 2°52.352 -999 2.066348 13.450434 -0.814958
2003-01-24 08:39:53 51°13.821 2°52.324 -999 2.066663 13.452671 -0.814958
2003-01-24 08:39:57 51°13.813 2°52.303 -999 2.066453 13.451827 -0.848668
2003-01-24 08:40:03 51°13.801 2°52.271 -999 2.066768 13.454064 -0.848668
2003-01-24 08:40:08 51°13.793 2°52.243 -999 2.066348 13.451081 -0.814958
2003-01-24 08:40:13 51°13.782 2°52.218 -999 2.066348 13.451081 -0.814958
2003-01-24 08:40:17 51°13.776 2°52.195 -999 2.066768 13.453848 -0.882377
2003-01-24 08:40:23 51°13.764 2°52.163 -999 2.066768 13.45428 -0.848668
2003-01-24 08:40:28 51°13.755 2°52.135 -999 2.066243 13.449688 -0.848668
2003-01-24 08:40:33 51°13.745 2°52.108 -999 2.066663 13.453318 -0.848668
2003-01-24 08:40:37 51°13.737 2°52.086 -999 2.066348 13.45065 -0.848668
2003-01-24 08:40:41 51°13.73 2°52.064 -999 2.066348 13.45065 -0.848668
2003-01-24 08:40:47 51°13.719 2°52.032 -999 2.066453 13.452043 -0.848668
2003-01-24 08:40:53 51°13.708 2°51.998 -999 2.066348 13.451513 -0.848668
2003-01-24 08:40:58 51°13.699 2°51.97 -999 2.066138 13.449158 -0.848668
2003-01-24 08:41:03 51°13.69 2°51.943 -999 2.066768 13.45428 -0.848668
2003-01-24 08:41:08 51°13.681 2°51.915 -999 2.066453 13.452259 -0.882377
2003-01-24 08:41:13 51°13.672 2°51.886 -999 2.066453 13.452259 -0.882377
2003-01-24 08:41:17 51°13.665 2°51.864 -999 2.066138 13.44959 -0.848668
2003-01-24 08:41:23 51°13.655 2°51.83 -999 2.066453 13.451827 -0.848668
2003-01-24 08:41:28 51°13.645 2°51.802 -999 2.066768 13.454712 -0.882377
2003-01-24 08:41:33 51°13.636 2°51.774 -999 2.066348 13.451945 -0.848668
2003-01-24 08:41:38 51°13.628 2°51.745 -999 2.066453 13.452475 -0.848668
2003-01-24 08:41:41 51°13.623 2°51.728 -999 2.066453 13.452475 -0.848668
2003-01-24 08:41:48 51°13.611 2°51.689 -999 2.066348 13.451729 -0.848668
2003-01-24 08:41:53 51°13.601 2°51.66 -999 2.066243 13.451415 -0.848668
2003-01-24 08:41:57 51°13.594 2°51.637 -999 2.066243 13.451415 -0.848668
2003-01-24 08:42:03 51°13.584 2°51.604 -999 2.066243 13.451199 -0.882377
2003-01-24 08:42:08 51°13.574 2°51.576 -999 2.066558 13.4543 -0.848668
2003-01-24 08:42:13 51°13.566 2°51.547 -999 2.066558 13.4543 -0.848668
2003-01-24 08:42:17 51°13.558 2°51.525 -999 2.066033 13.45014 -0.848668
2003-01-24 08:42:23 51°13.548 2°51.491 -999 2.066558 13.454084 -0.814958
2003-01-24 08:42:28 51°13.539 2°51.462 -999 2.066558 13.453868 -0.848668
2003-01-24 08:42:33 51°13.531 2°51.434 -999 2.066348 13.452593 -0.814958
2003-01-24 08:42:37 51°13.524 2°51.411 -999 2.066243 13.451631 -0.848668
2003-01-24 08:42:43 51°13.514 2°51.377 -999 2.066243 13.451631 -0.848668
2003-01-24 08:42:48 51°13.506 2°51.347 -999 2.066033 13.45014 -0.848668
2003-01-24 08:42:53 51°13.498 2°51.318 -999 2.066243 13.452063 -0.848668
2003-01-24 08:42:57 51°13.491 2°51.295 -999 2.066348 13.452809 -0.882377
2003-01-24 08:43:03 51°13.481 2°51.261 -999 2.066033 13.450356 -0.848668
2003-01-24 08:43:08 51°13.472 2°51.233 -999 2.066453 13.453123 -0.814958
2003-01-24 08:43:13 51°13.464 2°51.203 -999 2.066453 13.453123 -0.814958
2003-01-24 08:43:17 51°13.457 2°51.18 -999 2.066558 13.454732 -0.882377
2003-01-24 08:43:23 51°13.447 2°51.145 -999 2.065928 13.449394 -0.848668
2003-01-24 08:43:28 51°13.439 2°51.117 -999 2.066453 13.453986 -0.814958
2003-01-24 08:43:33 51°13.43 2°51.088 -999 2.066243 13.452711 -0.848668
2003-01-24 08:43:38 51°13.422 2°51.059 -999 2.065928 13.449826 -0.848668
2003-01-24 08:43:43 51°13.413 2°51.03 -999 2.065928 13.449826 -0.848668
2003-01-24 08:43:48 51°13.404 2°51.002 -999 2.066348 13.453025 -0.882377
2003-01-24 08:43:53 51°13.396 2°50.973 -999 2.066138 13.451533 -0.848668
2003-01-24 08:43:58 51°13.386 2°50.945 -999 2.066138 13.451965 -0.848668
2003-01-24 08:44:03 51°13.378 2°50.916 -999 2.065718 13.44855 -0.814958
2003-01-24 08:44:08 51°13.369 2°50.888 -999 2.066348 13.453241 -0.848668
2003-01-24 08:44:13 51°13.361 2°50.859 -999 2.066348 13.453241 -0.848668
2003-01-24 08:44:17 51°13.353 2°50.836 -999 2.066033 13.451435 -0.882377
2003-01-24 08:44:23 51°13.344 2°50.801 -999 2.065823 13.449296 -0.848668
2003-01-24 08:44:28 51°13.335 2°50.772 -999 2.066348 13.453241 -0.848668
2003-01-24 08:44:33 51°13.326 2°50.743 -999 2.066138 13.452181 -0.848668
2003-01-24 08:44:38 51°13.318 2°50.714 -999 2.065823 13.449296 -0.848668
2003-01-24 08:44:43 51°13.31 2°50.685 -999 2.065823 13.449296 -0.848668
2003-01-24 08:44:48 51°13.301 2°50.656 -999 2.066453 13.454202 -0.848668
2003-01-24 08:44:53 51°13.293 2°50.627 -999 2.065718 13.449198 -0.848668
2003-01-24 08:44:58 51°13.284 2°50.598 -999 2.066243 13.452927 -0.848668
2003-01-24 08:45:03 51°13.275 2°50.569 -999 2.065823 13.449944 -0.848668
2003-01-24 08:45:07 51°13.269 2°50.546 -999 2.066138 13.452181 -0.848668
2003-01-24 08:45:13 51°13.258 2°50.511 -999 2.066138 13.452181 -0.848668
2003-01-24 08:45:18 51°13.25 2°50.482 -999 2.065928 13.451121 -0.848668
2003-01-24 08:45:23 51°13.24 2°50.454 -999 2.066243 13.453143 -0.848668
2003-01-24 08:45:28 51°13.233 2°50.424 -999 2.065823 13.449728 -0.848668
2003-01-24 08:45:33 51°13.223 2°50.396 -999 2.066348 13.454321 -0.848668
2003-01-24 08:45:38 51°13.215 2°50.367 -999 2.065928 13.451121 -0.848668
2003-01-24 08:45:43 51°13.205 2°50.339 -999 2.065928 13.451121 -0.848668
2003-01-24 08:45:47 51°13.197 2°50.316 -999 2.066558 13.455812 -0.848668
2003-01-24 08:45:53 51°13.186 2°50.282 -999 2.065928 13.450905 -0.882377
2003-01-24 08:45:57 51°13.179 2°50.259 -999 2.066243 13.453359 -0.848668
2003-01-24 08:46:03 51°13.166 2°50.226 -999 2.065823 13.451023 -0.848668
2003-01-24 08:46:07 51°13.159 2°50.203 -999 2.065718 13.449846 -0.814958
2003-01-24 08:46:13 51°13.147 2°50.17 -999 2.065718 13.449846 -0.814958
2003-01-24 08:46:18 51°13.137 2°50.142 -999 2.065823 13.450159 -0.848668
2003-01-24 08:46:23 51°13.127 2°50.114 -999 2.066243 13.453575 -0.848668
2003-01-24 08:46:28 51°13.117 2°50.087 -999 2.065508 13.44857 -0.848668
2003-01-24 08:46:33 51°13.107 2°50.059 -999 2.066033 13.452299 -0.848668
2003-01-24 08:46:37 51°13.098 2°50.037 -999 2.065718 13.449846 -0.848668
2003-01-24 08:46:43 51°13.086 2°50.004 -999 2.065718 13.449846 -0.848668
2003-01-24 08:46:48 51°13.075 2°49.977 -999 2.066138 13.453477 -0.848668
2003-01-24 08:46:53 51°13.064 2°49.949 -999 2.065823 13.450807 -0.848668
2003-01-24 08:46:57 51°13.056 2°49.927 -999 2.065823 13.450375 -0.814958
2003-01-24 08:47:03 51°13.044 2°49.894 -999 2.066033 13.452731 -0.848668
2003-01-24 08:47:07 51°13.036 2°49.872 -999 2.065613 13.449532 -0.848668
2003-01-24 08:47:13 51°13.023 2°49.838 -999 2.065613 13.449532 -0.848668
2003-01-24 08:47:17 51°13.015 2°49.816 -999 2.065823 13.450375 -0.848668
2003-01-24 08:47:23 51°13.002 2°49.783 -999 2.066243 13.454223 -0.848668
2003-01-24 08:47:28 51°12.992 2°49.755 -999 2.065718 13.450277 -0.848668
2003-01-24 08:47:33 51°12.983 2°49.727 -999 2.065718 13.450061 -0.848668
2003-01-24 08:47:37 51°12.974 2°49.705 -999 2.066138 13.453045 -0.848668
2003-01-24 08:47:43 51°12.963 2°49.671 -999 2.066138 13.453045 -0.848668
2003-01-24 08:47:47 51°12.954 2°49.65 -999 2.065613 13.449748 -0.848668
2003-01-24 08:47:53 51°12.941 2°49.616 -999 2.066243 13.454223 -0.848668
2003-01-24 08:47:58 51°12.931 2°49.588 -999 2.065718 13.450061 -0.848668
2003-01-24 08:48:03 51°12.921 2°49.56 -999 2.065823 13.450591 -0.848668
2003-01-24 08:48:07 51°12.914 2°49.538 -999 2.066138 13.453693 -0.848668
2003-01-24 08:48:13 51°12.901 2°49.505 -999 2.066138 13.453693 -0.848668
2003-01-24 08:48:17 51°12.893 2°49.483 -999 2.065508 13.449002 -0.848668
2003-01-24 08:48:23 51°12.881 2°49.449 -999 2.066138 13.453045 -0.882377
2003-01-24 08:48:27 51°12.872 2°49.427 -999 2.066033 13.452947 -0.882377
2003-01-24 08:48:33 51°12.861 2°49.393 -999 2.065508 13.44857 -0.848668
2003-01-24 08:48:38 51°12.85 2°49.367 -999 2.066768 13.4586 -0.814958
2003-01-24 08:48:43 51°12.841 2°49.338 -999 2.066768 13.4586 -0.814958
2003-01-24 08:48:48 51°12.83 2°49.311 -999 2.065613 13.450395 -0.882377
2003-01-24 08:48:53 51°12.821 2°49.282 -999 2.065508 13.44857 -0.882377
2003-01-24 08:48:58 51°12.81 2°49.256 -999 2.066033 13.453379 -0.848668
2003-01-24 08:49:03 51°12.801 2°49.227 -999 2.065298 13.447942 -0.848668
2003-01-24 08:49:07 51°12.792 2°49.206 -999 2.066243 13.454439 -0.848668
2003-01-24 08:49:12 51°12.782 2°49.177 -999 2.066243 13.454439 -0.848668
2003-01-24 08:49:18 51°12.77 2°49.144 -999 2.065928 13.452633 -0.848668
2003-01-24 08:49:23 51°12.76 2°49.116 -999 2.065508 13.449218 -0.848668
2003-01-24 08:49:28 51°12.749 2°49.089 -999 2.066138 13.454773 -0.848668
2003-01-24 08:49:33 51°12.739 2°49.06 -999 2.065613 13.450827 -0.848668
2003-01-24 08:49:37 51°12.731 2°49.038 -999 2.065508 13.449865 -0.848668
2003-01-24 08:49:43 51°12.719 2°49.005 -999 2.065508 13.449865 -0.848668
2003-01-24 08:49:48 51°12.709 2°48.977 -999 2.065718 13.451573 -0.848668
2003-01-24 08:49:53 51°12.698 2°48.949 -999 2.065508 13.449865 -0.848668
2003-01-24 08:49:58 51°12.688 2°48.921 -999 2.065928 13.453065 -0.882377
2003-01-24 08:50:03 51°12.678 2°48.893 -999 2.065298 13.448374 -0.814958
2003-01-24 08:50:06 51°12.671 2°48.877 -999 2.066138 13.454989 -0.848668
2003-01-24 08:50:13 51°12.656 2°48.839 -999 2.066138 13.454989 -0.848668
2003-01-24 08:50:17 51°12.648 2°48.816 -999 2.065403 13.449767 -0.848668
2003-01-24 08:50:23 51°12.636 2°48.783 -999 2.065718 13.452005 -0.882377
2003-01-24 08:50:28 51°12.627 2°48.755 -999 2.065403 13.449767 -0.848668
2003-01-24 08:50:33 51°12.616 2°48.726 -999 2.065823 13.453183 -0.848668
2003-01-24 08:50:37 51°12.608 2°48.703 -999 2.065613 13.450827 -0.882377
2003-01-24 08:50:43 51°12.597 2°48.67 -999 2.065613 13.450827 -0.882377
2003-01-24 08:50:48 51°12.587 2°48.642 -999 2.065718 13.452005 -0.882377
2003-01-24 08:50:53 51°12.577 2°48.613 -999 2.065508 13.450945 -0.882377
2003-01-24 08:50:58 51°12.567 2°48.584 -999 2.065613 13.450611 -0.848668
2003-01-24 08:51:03 51°12.557 2°48.557 -999 2.066138 13.454773 -0.848668
2003-01-24 08:51:07 51°12.55 2°48.535 -999 2.065613 13.452123 -0.848668
2003-01-24 08:51:13 51°12.536 2°48.501 -999 2.065613 13.452123 -0.848668
2003-01-24 08:51:18 51°12.526 2°48.474 -999 2.065193 13.44806 -0.848668
2003-01-24 08:51:23 51°12.515 2°48.447 -999 2.065718 13.451573 -0.814958
2003-01-24 08:51:28 51°12.504 2°48.42 -999 2.065403 13.449767 -0.848668
2003-01-24 08:51:33 51°12.493 2°48.392 -999 2.065508 13.451161 -0.814958
2003-01-24 08:51:38 51°12.482 2°48.365 -999 2.065403 13.450199 -0.848668
2003-01-24 08:51:43 51°12.471 2°48.337 -999 2.065403 13.450199 -0.848668
2003-01-24 08:51:48 51°12.461 2°48.31 -999 2.065298 13.449022 -0.882377
2003-01-24 08:51:53 51°12.45 2°48.282 -999 2.065508 13.451161 -0.848668
2003-01-24 08:51:58 51°12.439 2°48.255 -999 2.065193 13.449139 -0.882377
2003-01-24 08:52:03 51°12.429 2°48.228 -999 2.065403 13.450199 -0.882377
2003-01-24 08:52:07 51°12.42 2°48.207 -999 2.065508 13.451377 -0.882377
2003-01-24 08:52:13 51°12.407 2°48.174 -999 2.065508 13.451377 -0.882377
2003-01-24 08:52:17 51°12.397 2°48.152 -999 2.065403 13.450631 -0.848668
2003-01-24 08:52:23 51°12.384 2°48.119 -999 2.065298 13.449238 -0.848668
2003-01-24 08:52:28 51°12.374 2°48.092 -999 2.065823 13.453615 -0.848668
2003-01-24 08:52:33 51°12.362 2°48.065 -999 2.065403 13.451063 -0.882377
2003-01-24 08:52:38 51°12.352 2°48.036 -999 2.065088 13.447962 -0.848668
2003-01-24 08:52:43 51°12.341 2°48.01 -999 2.065088 13.447962 -0.848668
2003-01-24 08:52:47 51°12.333 2°47.987 -999 2.065718 13.452653 -0.848668
2003-01-24 08:52:53 51°12.319 2°47.955 -999 2.065298 13.450533 -0.814958
2003-01-24 08:52:57 51°12.311 2°47.933 -999 2.065298 13.449885 -0.882377
2003-01-24 08:53:03 51°12.298 2°47.901 -999 2.065508 13.451377 -0.814958
2003-01-24 08:53:08 51°12.288 2°47.873 -999 2.065298 13.449885 -0.848668
2003-01-24 08:53:13 51°12.277 2°47.845 -999 2.065298 13.449885 -0.848668
2003-01-24 08:53:17 51°12.269 2°47.823 -999 2.064878 13.446902 -0.848668
2003-01-24 08:53:23 51°12.256 2°47.791 -999 2.065718 13.453734 -0.882377
2003-01-24 08:53:27 51°12.248 2°47.769 -999 2.065193 13.449571 -0.848668
2003-01-24 08:53:33 51°12.235 2°47.736 -999 2.065403 13.451279 -0.848668
2003-01-24 08:53:38 51°12.224 2°47.708 -999 2.065193 13.448924 -0.814958
2003-01-24 08:53:43 51°12.214 2°47.68 -999 2.065193 13.448924 -0.814958
2003-01-24 08:53:48 51°12.203 2°47.654 -999 2.065403 13.451496 -0.848668
2003-01-24 08:53:53 51°12.193 2°47.625 -999 2.065403 13.451928 -0.882377
2003-01-24 08:53:58 51°12.182 2°47.597 -999 2.065088 13.449257 -0.848668
2003-01-24 08:54:03 51°12.172 2°47.569 -999 2.065088 13.448609 -0.882377
2003-01-24 08:54:08 51°12.16 2°47.542 -999 2.065508 13.452458 -0.848668
2003-01-24 08:54:13 51°12.15 2°47.514 -999 2.065508 13.452458 -0.848668
2003-01-24 08:54:17 51°12.141 2°47.492 -999 2.064983 13.448943 -0.814958
2003-01-24 08:54:23 51°12.129 2°47.459 -999 2.065298 13.450749 -0.848668
2003-01-24 08:54:28 51°12.118 2°47.431 -999 2.064983 13.448295 -0.848668
2003-01-24 08:54:33 51°12.108 2°47.403 -999 2.065193 13.450003 -0.848668
2003-01-24 08:54:37 51°12.099 2°47.381 -999 2.065403 13.452144 -0.848668
2003-01-24 08:54:43 51°12.086 2°47.347 -999 2.065403 13.452144 -0.848668
2003-01-24 08:54:48 51°12.075 2°47.32 -999 2.064983 13.448727 -0.848668
2003-01-24 08:54:53 51°12.065 2°47.292 -999 2.065088 13.448609 -0.848668
2003-01-24 08:54:58 51°12.054 2°47.265 -999 2.065508 13.45289 -0.882377
2003-01-24 08:55:03 51°12.044 2°47.237 -999 2.065298 13.451398 -0.814958
2003-01-24 08:55:08 51°12.033 2°47.209 -999 2.065088 13.449257 -0.848668
2003-01-24 08:55:13 51°12.022 2°47.181 -999 2.065088 13.449257 -0.848668
2003-01-24 08:55:17 51°12.013 2°47.159 -999 2.065193 13.450003 -0.848668
2003-01-24 08:55:23 51°12 2°47.126 -999 2.065298 13.451398 -0.848668
2003-01-24 08:55:28 51°11.99 2°47.098 -999 2.065088 13.449689 -0.848668
2003-01-24 08:55:33 51°11.979 2°47.071 -999 2.065298 13.451398 -0.848668
2003-01-24 08:55:37 51°11.97 2°47.048 -999 2.064878 13.447981 -0.848668
2003-01-24 08:55:43 51°11.957 2°47.015 -999 2.064878 13.447981 -0.848668
2003-01-24 08:55:48 51°11.947 2°46.987 -999 2.065088 13.449689 -0.848668
2003-01-24 08:55:53 51°11.936 2°46.959 -999 2.065088 13.449905 -0.848668
2003-01-24 08:55:57 51°11.927 2°46.937 -999 2.064983 13.448943 -0.848668
2003-01-24 08:56:02 51°11.917 2°46.91 -999 2.064983 13.449159 -0.848668
2003-01-24 08:56:08 51°11.904 2°46.877 -999 2.064983 13.449159 -0.848668
2003-01-24 08:56:13 51°11.893 2°46.85 -999 2.064983 13.449159 -0.848668
2003-01-24 08:56:17 51°11.885 2°46.827 -999 2.065403 13.45236 -0.848668
2003-01-24 08:56:23 51°11.872 2°46.795 -999 2.064878 13.448845 -0.848668
2003-01-24 08:56:28 51°11.861 2°46.767 -999 2.064983 13.449375 -0.814958
2003-01-24 08:56:33 51°11.85 2°46.74 -999 2.065088 13.450338 -0.848668
2003-01-24 08:56:38 51°11.839 2°46.712 -999 2.064878 13.448413 -0.848668
2003-01-24 08:56:43 51°11.828 2°46.686 -999 2.064878 13.448413 -0.848668
2003-01-24 08:56:48 51°11.818 2°46.658 -999 2.065088 13.450338 -0.882377
2003-01-24 08:56:53 51°11.806 2°46.631 -999 2.065193 13.451516 -0.848668
2003-01-24 08:56:58 51°11.796 2°46.603 -999 2.064668 13.447137 -0.848668
2003-01-24 08:57:03 51°11.784 2°46.577 -999 2.065193 13.451084 -0.848668
2003-01-24 08:57:07 51°11.776 2°46.554 -999 2.064773 13.448315 -0.814958
2003-01-24 08:57:13 51°11.763 2°46.521 -999 2.064773 13.448315 -0.814958
2003-01-24 08:57:17 51°11.754 2°46.5 -999 2.065088 13.450338 -0.848668
2003-01-24 08:57:23 51°11.742 2°46.467 -999 2.064878 13.448629 -0.848668
2003-01-24 08:57:28 51°11.73 2°46.441 -999 2.064983 13.45024 -0.848668
2003-01-24 08:57:33 51°11.719 2°46.413 -999 2.064668 13.447569 -0.814958
2003-01-24 08:57:38 51°11.708 2°46.386 -999 2.065088 13.45077 -0.882377
2003-01-24 08:57:43 51°11.697 2°46.359 -999 2.065088 13.45077 -0.882377
2003-01-24 08:57:48 51°11.687 2°46.332 -999 2.064668 13.447137 -0.848668
2003-01-24 08:57:53 51°11.675 2°46.305 -999 2.065193 13.451948 -0.848668
2003-01-24 08:57:57 51°11.667 2°46.283 -999 2.064668 13.447785 -0.848668
2003-01-24 08:58:03 51°11.654 2°46.25 -999 2.064983 13.449591 -0.848668
2003-01-24 08:58:08 51°11.643 2°46.222 -999 2.064878 13.448845 -0.814958
2003-01-24 08:58:13 51°11.633 2°46.196 -999 2.064878 13.448845 -0.814958
2003-01-24 08:58:17 51°11.624 2°46.174 -999 2.065088 13.451418 -0.848668
2003-01-24 08:58:23 51°11.611 2°46.141 -999 2.064563 13.447039 -0.848668
2003-01-24 08:58:28 51°11.601 2°46.113 -999 2.064773 13.448099 -0.848668
2003-01-24 08:58:33 51°11.59 2°46.086 -999 2.064878 13.449061 -0.882377
2003-01-24 08:58:38 51°11.58 2°46.059 -999 2.064878 13.449926 -0.848668
2003-01-24 08:58:43 51°11.569 2°46.032 -999 2.064878 13.449926 -0.848668
2003-01-24 08:58:48 51°11.558 2°46.005 -999 2.064773 13.449396 -0.814958
2003-01-24 08:58:53 51°11.547 2°45.977 -999 2.064668 13.447353 -0.848668
2003-01-24 08:58:58 51°11.536 2°45.951 -999 2.065298 13.452694 -0.848668
2003-01-24 08:59:03 51°11.526 2°45.922 -999 2.064563 13.447255 -0.814958
2003-01-24 08:59:08 51°11.514 2°45.896 -999 2.065298 13.45291 -0.848668
2003-01-24 08:59:13 51°11.504 2°45.868 -999 2.065298 13.45291 -0.848668
2003-01-24 08:59:18 51°11.493 2°45.842 -999 2.064773 13.448747 -0.814958
2003-01-24 08:59:23 51°11.483 2°45.814 -999 2.064983 13.450456 -0.882377
2003-01-24 08:59:27 51°11.473 2°45.792 -999 2.065088 13.451418 -0.882377
2003-01-24 08:59:33 51°11.461 2°45.759 -999 2.064563 13.447471 -0.848668
2003-01-24 08:59:38 51°11.45 2°45.733 -999 2.064878 13.450142 -0.848668
2003-01-24 08:59:43 51°11.439 2°45.705 -999 2.064878 13.450142 -0.848668
2003-01-24 08:59:48 51°11.429 2°45.676 -999 2.064878 13.44971 -0.848668
2003-01-24 08:59:53 51°11.42 2°45.648 -999 2.064668 13.447785 -0.848668
2003-01-24 08:59:57 51°11.413 2°45.625 -999 2.065088 13.451202 -0.848668
2003-01-24 09:00:03 51°11.403 2°45.59 -999 2.064668 13.448217 -0.848668
2003-01-24 09:00:08 51°11.394 2°45.561 -999 2.064878 13.449926 -0.848668
2003-01-24 09:00:13 51°11.386 2°45.531 -999 2.064878 13.449926 -0.848668
2003-01-24 09:00:17 51°11.379 2°45.508 -999 2.064563 13.447471 -0.848668
2003-01-24 09:00:23 51°11.37 2°45.471 -999 2.064878 13.449926 -0.814958
2003-01-24 09:00:28 51°11.363 2°45.442 -999 2.064983 13.450888 -0.848668
2003-01-24 09:00:33 51°11.355 2°45.411 -999 2.064668 13.448649 -0.848668
2003-01-24 09:00:37 51°11.349 2°45.387 -999 2.064878 13.450142 -0.848668
2003-01-24 09:00:43 51°11.341 2°45.351 -999 2.064878 13.450142 -0.848668
2003-01-24 09:00:48 51°11.334 2°45.321 -999 2.064668 13.448649 -0.848668
2003-01-24 09:00:53 51°11.328 2°45.29 -999 2.064878 13.45079 -0.814958
2003-01-24 09:00:57 51°11.322 2°45.265 -999 2.064668 13.448865 -0.848668
2003-01-24 09:01:03 51°11.314 2°45.228 -999 2.064878 13.450574 -0.848668
2003-01-24 09:01:08 51°11.308 2°45.197 -999 2.065193 13.453245 -0.848668
2003-01-24 09:01:13 51°11.301 2°45.166 -999 2.065193 13.453245 -0.848668
2003-01-24 09:01:18 51°11.294 2°45.136 -999 2.064563 13.448551 -0.814958
2003-01-24 09:01:22 51°11.289 2°45.111 -999 2.064563 13.448984 -0.848668
2003-01-24 09:01:27 51°11.281 2°45.081 -999 2.064563 13.448984 -0.848668
2003-01-24 09:01:32 51°11.274 2°45.051 -999 2.064668 13.44973 -0.814958
2003-01-24 09:01:38 51°11.266 2°45.014 -999 2.064668 13.44973 -0.848668
2003-01-24 09:01:43 51°11.259 2°44.983 -999 2.064668 13.44973 -0.848668
2003-01-24 09:01:48 51°11.252 2°44.953 -999 2.064458 13.448453 -0.848668
2003-01-24 09:01:53 51°11.245 2°44.923 -999 2.064668 13.450162 -0.848668
2003-01-24 09:01:58 51°11.237 2°44.893 -999 2.064773 13.45134 -0.848668
2003-01-24 09:02:02 51°11.232 2°44.868 -999 2.064353 13.447707 -0.848668
2003-01-24 09:02:08 51°11.222 2°44.833 -999 2.064773 13.45134 -0.848668
2003-01-24 09:02:13 51°11.215 2°44.802 -999 2.064773 13.45134 -0.848668
2003-01-24 09:02:17 51°11.209 2°44.778 -999 2.064563 13.4492 -0.848668
2003-01-24 09:02:23 51°11.201 2°44.742 -999 2.064668 13.450162 -0.848668
2003-01-24 09:02:28 51°11.193 2°44.712 -999 2.064353 13.448355 -0.814958
2003-01-24 09:02:33 51°11.186 2°44.681 -999 2.064563 13.4492 -0.848668
2003-01-24 09:02:37 51°11.181 2°44.656 -999 2.064773 13.450476 -0.814958
2003-01-24 09:02:42 51°11.175 2°44.625 -999 2.064773 13.450476 -0.814958
2003-01-24 09:02:48 51°11.168 2°44.588 -999 2.064668 13.44973 -0.814958
2003-01-24 09:02:53 51°11.161 2°44.558 -999 2.064773 13.451124 -0.848668
2003-01-24 09:02:57 51°11.157 2°44.533 -999 2.064353 13.448139 -0.848668
2003-01-24 09:03:03 51°11.149 2°44.496 -999 2.064458 13.448237 -0.814958
2003-01-24 09:03:08 51°11.143 2°44.464 -999 2.064563 13.4492 -0.848668
2003-01-24 09:03:13 51°11.137 2°44.434 -999 2.064563 13.4492 -0.848668
2003-01-24 09:03:18 51°11.131 2°44.404 -999 2.064563 13.449416 -0.814958
2003-01-24 09:03:22 51°11.126 2°44.379 -999 2.064668 13.45081 -0.848668
2003-01-24 09:03:27 51°11.12 2°44.347 -999 2.064248 13.447177 -0.882377
2003-01-24 09:03:33 51°11.112 2°44.31 -999 2.064563 13.4492 -0.848668
2003-01-24 09:03:37 51°11.108 2°44.286 -999 2.064773 13.45134 -0.848668
2003-01-24 09:03:43 51°11.1 2°44.248 -999 2.064773 13.45134 -0.848668
2003-01-24 09:03:48 51°11.094 2°44.217 -999 2.064458 13.449318 -0.848668
2003-01-24 09:03:53 51°11.089 2°44.186 -999 2.064248 13.447177 -0.814958
2003-01-24 09:03:57 51°11.084 2°44.161 -999 2.064773 13.451773 -0.848668
2003-01-24 09:04:02 51°11.078 2°44.13 -999 2.064458 13.449318 -0.882377
2003-01-24 09:04:08 51°11.071 2°44.092 -999 2.064353 13.448139 -0.848668
2003-01-24 09:04:13 51°11.065 2°44.061 -999 2.064353 13.448139 -0.848668
2003-01-24 09:04:17 51°11.06 2°44.037 -999 2.064668 13.451026 -0.814958
2003-01-24 09:04:23 51°11.053 2°43.999 -999 2.064458 13.449534 -0.848668
2003-01-24 09:04:28 51°11.047 2°43.968 -999 2.064458 13.449318 -0.814958
2003-01-24 09:04:33 51°11.041 2°43.937 -999 2.064458 13.449318 -0.848668
2003-01-24 09:04:38 51°11.035 2°43.905 -999 2.064458 13.44975 -0.848668
2003-01-24 09:04:42 51°11.031 2°43.88 -999 2.064458 13.44975 -0.848668
2003-01-24 09:04:48 51°11.024 2°43.843 -999 2.064563 13.450064 -0.814958
2003-01-24 09:04:53 51°11.018 2°43.812 -999 2.064773 13.451989 -0.848668
2003-01-24 09:04:57 51°11.013 2°43.787 -999 2.064458 13.449534 -0.882377
2003-01-24 09:05:03 51°11.006 2°43.75 -999 2.064353 13.448788 -0.848668
2003-01-24 09:05:08 51°11 2°43.719 -999 2.064563 13.450496 -0.848668
2003-01-24 09:05:13 51°10.995 2°43.687 -999 2.064563 13.450496 -0.848668
2003-01-24 09:05:18 51°10.989 2°43.656 -999 2.064353 13.449004 -0.848668
2003-01-24 09:05:23 51°10.983 2°43.625 -999 2.064353 13.449436 -0.848668
2003-01-24 09:05:27 51°10.978 2°43.6 -999 2.064353 13.44922 -0.848668
2003-01-24 09:05:33 51°10.971 2°43.563 -999 2.064668 13.451459 -0.848668
2003-01-24 09:05:38 51°10.966 2°43.532 -999 2.064458 13.449534 -0.848668
2003-01-24 09:05:43 51°10.96 2°43.501 -999 2.064458 13.449534 -0.848668
2003-01-24 09:05:47 51°10.956 2°43.476 -999 2.064563 13.450928 -0.848668
2003-01-24 09:05:53 51°10.949 2°43.438 -999 2.064353 13.449436 -0.848668
2003-01-24 09:05:58 51°10.944 2°43.406 -999 2.064563 13.450712 -0.882377
2003-01-24 09:06:03 51°10.939 2°43.375 -999 2.064143 13.447511 -0.848668
2003-01-24 09:06:08 51°10.933 2°43.344 -999 2.064563 13.451145 -0.882377
2003-01-24 09:06:13 51°10.927 2°43.313 -999 2.064563 13.451145 -0.882377
2003-01-24 09:06:17 51°10.923 2°43.287 -999 2.064458 13.450398 -0.848668
2003-01-24 09:06:23 51°10.916 2°43.25 -999 2.064143 13.447511 -0.848668
2003-01-24 09:06:28 51°10.911 2°43.219 -999 2.064248 13.448473 -0.848668
2003-01-24 09:06:33 51°10.905 2°43.188 -999 2.064353 13.450084 -0.848668
2003-01-24 09:06:37 51°10.901 2°43.162 -999 2.064248 13.449122 -0.848668
2003-01-24 09:06:43 51°10.894 2°43.125 -999 2.064248 13.449122 -0.848668
2003-01-24 09:06:48 51°10.889 2°43.094 -999 2.064563 13.450928 -0.882377
2003-01-24 09:06:53 51°10.883 2°43.064 -999 2.064353 13.449652 -0.882377
2003-01-24 09:06:58 51°10.877 2°43.032 -999 2.064038 13.447845 -0.848668
2003-01-24 09:07:02 51°10.873 2°43.007 -999 2.064143 13.448375 -0.848668
2003-01-24 09:07:08 51°10.866 2°42.969 -999 2.064143 13.448159 -0.848668
2003-01-24 09:07:13 51°10.861 2°42.938 -999 2.064143 13.448159 -0.848668
2003-01-24 09:07:18 51°10.856 2°42.906 -999 2.064038 13.447629 -0.848668
2003-01-24 09:07:22 51°10.851 2°42.882 -999 2.064143 13.449024 -0.814958
2003-01-24 09:07:27 51°10.846 2°42.85 -999 2.064248 13.449554 -0.882377
2003-01-24 09:07:33 51°10.839 2°42.812 -999 2.064143 13.448375 -0.848668
2003-01-24 09:07:38 51°10.834 2°42.78 -999 2.064248 13.449554 -0.848668
2003-01-24 09:07:43 51°10.829 2°42.748 -999 2.064248 13.449554 -0.848668
2003-01-24 09:07:47 51°10.824 2°42.723 -999 2.064353 13.450516 -0.848668
2003-01-24 09:07:53 51°10.818 2°42.686 -999 2.063933 13.447315 -0.848668
2003-01-24 09:07:57 51°10.813 2°42.66 -999 2.064248 13.44977 -0.848668
2003-01-24 09:08:03 51°10.807 2°42.623 -999 2.064458 13.451695 -0.848668
2003-01-24 09:08:08 51°10.802 2°42.591 -999 2.063933 13.447531 -0.814958
2003-01-24 09:08:13 51°10.796 2°42.56 -999 2.063933 13.447531 -0.814958
2003-01-24 09:08:17 51°10.792 2°42.534 -999 2.064248 13.449986 -0.882377
2003-01-24 09:08:23 51°10.785 2°42.497 -999 2.064143 13.448808 -0.882377
2003-01-24 09:08:28 51°10.78 2°42.466 -999 2.064248 13.450419 -0.848668
2003-01-24 09:08:33 51°10.774 2°42.435 -999 2.064248 13.450202 -0.882377
2003-01-24 09:08:38 51°10.768 2°42.402 -999 2.063933 13.447315 -0.848668
2003-01-24 09:08:43 51°10.762 2°42.371 -999 2.063933 13.447315 -0.848668
2003-01-24 09:08:48 51°10.757 2°42.339 -999 2.064038 13.447629 -0.848668
2003-01-24 09:08:53 51°10.751 2°42.309 -999 2.064143 13.449888 -0.848668
2003-01-24 09:08:58 51°10.745 2°42.278 -999 2.064038 13.449142 -0.814958
2003-01-24 09:09:03 51°10.739 2°42.246 -999 2.064143 13.44924 -0.814958
2003-01-24 09:09:08 51°10.733 2°42.214 -999 2.064143 13.448808 -0.848668
2003-01-24 09:09:13 51°10.728 2°42.182 -999 2.064143 13.448808 -0.848668
2003-01-24 09:09:17 51°10.724 2°42.157 -999 2.063828 13.446785 -0.848668
2003-01-24 09:09:23 51°10.718 2°42.12 -999 2.064353 13.451381 -0.814958
2003-01-24 09:09:28 51°10.713 2°42.088 -999 2.064248 13.451067 -0.882377
2003-01-24 09:09:33 51°10.708 2°42.056 -999 2.064143 13.449456 -0.848668
2003-01-24 09:09:37 51°10.704 2°42.03 -999 2.064143 13.44924 -0.848668
2003-01-24 09:09:43 51°10.699 2°41.991 -999 2.064143 13.44924 -0.848668
2003-01-24 09:09:48 51°10.694 2°41.96 -999 2.064038 13.448926 -0.848668
2003-01-24 09:09:53 51°10.69 2°41.929 -999 2.064038 13.449142 -0.814958
2003-01-24 09:09:57 51°10.686 2°41.904 -999 2.064353 13.451814 -0.848668
2003-01-24 09:10:03 51°10.68 2°41.865 -999 2.064353 13.451814 -0.848668
2003-01-24 09:10:08 51°10.676 2°41.833 -999 2.063933 13.44818 -0.848668
2003-01-24 09:10:13 51°10.672 2°41.801 -999 2.063933 13.44818 -0.848668
2003-01-24 09:10:17 51°10.668 2°41.775 -999 2.064038 13.449142 -0.882377
2003-01-24 09:10:22 51°10.664 2°41.745 -999 2.064143 13.450753 -0.814958
2003-01-24 09:10:28 51°10.658 2°41.707 -999 2.063933 13.449476 -0.848668
2003-01-24 09:10:33 51°10.653 2°41.676 -999 2.064143 13.450537 -0.882377
2003-01-24 09:10:38 51°10.648 2°41.644 -999 2.063933 13.448612 -0.848668
2003-01-24 09:10:43 51°10.643 2°41.612 -999 2.063933 13.448612 -0.848668
2003-01-24 09:10:48 51°10.639 2°41.581 -999 2.064143 13.450537 -0.848668
2003-01-24 09:10:53 51°10.634 2°41.55 -999 2.063828 13.44873 -0.848668
2003-01-24 09:10:58 51°10.63 2°41.518 -999 2.064038 13.450223 -0.848668
2003-01-24 09:11:03 51°10.625 2°41.487 -999 2.064038 13.450007 -0.848668
2003-01-24 09:11:08 51°10.621 2°41.454 -999 2.064038 13.44979 -0.882377
2003-01-24 09:11:13 51°10.616 2°41.423 -999 2.064038 13.44979 -0.882377
2003-01-24 09:11:17 51°10.613 2°41.397 -999 2.063828 13.448946 -0.848668
2003-01-24 09:11:23 51°10.607 2°41.36 -999 2.063723 13.4482 -0.848668
2003-01-24 09:11:27 51°10.604 2°41.334 -999 2.063828 13.44873 -0.848668
2003-01-24 09:11:33 51°10.598 2°41.296 -999 2.064143 13.450969 -0.848668
2003-01-24 09:11:38 51°10.595 2°41.265 -999 2.063618 13.447237 -0.848668
2003-01-24 09:11:42 51°10.591 2°41.239 -999 2.063618 13.447237 -0.848668
2003-01-24 09:11:47 51°10.587 2°41.207 -999 2.063828 13.44873 -0.848668
2003-01-24 09:11:53 51°10.581 2°41.17 -999 2.064038 13.450439 -0.848668
2003-01-24 09:11:58 51°10.578 2°41.138 -999 2.063828 13.44873 -0.848668
2003-01-24 09:12:02 51°10.574 2°41.113 -999 2.063933 13.449476 -0.882377
2003-01-24 09:12:08 51°10.569 2°41.075 -999 2.064038 13.450871 -0.848668
2003-01-24 09:12:13 51°10.565 2°41.043 -999 2.064038 13.450871 -0.848668
2003-01-24 09:12:17 51°10.561 2°41.018 -999 2.063618 13.447669 -0.848668
2003-01-24 09:12:23 51°10.556 2°40.98 -999 2.063933 13.449476 -0.848668
2003-01-24 09:12:28 51°10.551 2°40.948 -999 2.064143 13.451402 -0.848668
2003-01-24 09:12:33 51°10.548 2°40.916 -999 2.063618 13.447453 -0.848668
2003-01-24 09:12:38 51°10.542 2°40.886 -999 2.063828 13.449162 -0.848668
2003-01-24 09:12:42 51°10.539 2°40.861 -999 2.063828 13.449162 -0.848668
2003-01-24 09:12:47 51°10.534 2°40.829 -999 2.063933 13.450341 -0.848668
2003-01-24 09:12:53 51°10.528 2°40.791 -999 2.063828 13.449378 -0.848668
2003-01-24 09:12:58 51°10.524 2°40.759 -999 2.063513 13.447139 -0.848668
2003-01-24 09:13:03 51°10.52 2°40.727 -999 2.064038 13.450871 -0.848668
2003-01-24 09:13:08 51°10.515 2°40.695 -999 2.063618 13.448102 -0.848668
2003-01-24 09:13:13 51°10.511 2°40.664 -999 2.063618 13.448102 -0.848668
2003-01-24 09:13:18 51°10.506 2°40.633 -999 2.063933 13.450341 -0.814958
2003-01-24 09:13:23 51°10.501 2°40.602 -999 2.063828 13.449595 -0.882377
2003-01-24 09:13:28 51°10.496 2°40.571 -999 2.063618 13.447886 -0.814958
2003-01-24 09:13:33 51°10.491 2°40.539 -999 2.063723 13.448848 -0.814958
2003-01-24 09:13:38 51°10.486 2°40.507 -999 2.063933 13.450341 -0.814958
2003-01-24 09:13:43 51°10.482 2°40.476 -999 2.063933 13.450341 -0.814958
2003-01-24 09:13:48 51°10.477 2°40.444 -999 2.063618 13.448318 -0.848668
2003-01-24 09:13:53 51°10.472 2°40.413 -999 2.063618 13.448534 -0.848668
2003-01-24 09:13:57 51°10.469 2°40.388 -999 2.063618 13.448102 -0.848668
2003-01-24 09:14:03 51°10.464 2°40.35 -999 2.063828 13.449595 -0.848668
2003-01-24 09:14:08 51°10.459 2°40.318 -999 2.063933 13.450557 -0.882377
2003-01-24 09:14:13 51°10.455 2°40.286 -999 2.063933 13.450557 -0.882377
2003-01-24 09:14:17 51°10.451 2°40.261 -999 2.063513 13.447355 -0.848668
2003-01-24 09:14:23 51°10.446 2°40.223 -999 2.063933 13.450557 -0.848668
2003-01-24 09:14:28 51°10.441 2°40.192 -999 2.063828 13.450243 -0.882377
2003-01-24 09:14:33 51°10.437 2°40.16 -999 2.063513 13.447355 -0.848668
2003-01-24 09:14:38 51°10.432 2°40.128 -999 2.063723 13.449064 -0.848668
2003-01-24 09:14:43 51°10.428 2°40.096 -999 2.063723 13.449064 -0.848668
2003-01-24 09:14:47 51°10.424 2°40.071 -999 2.063723 13.449281 -0.882377
2003-01-24 09:14:53 51°10.419 2°40.033 -999 2.063618 13.448318 -0.814958
2003-01-24 09:14:58 51°10.415 2°40.001 -999 2.064038 13.451736 -0.848668
2003-01-24 09:15:03 51°10.41 2°39.969 -999 2.063513 13.448004 -0.848668
2003-01-24 09:15:08 51°10.406 2°39.937 -999 2.063828 13.450243 -0.848668
2003-01-24 09:15:13 51°10.401 2°39.906 -999 2.063828 13.450243 -0.848668
2003-01-24 09:15:17 51°10.398 2°39.88 -999 2.063408 13.447041 -0.882377
2003-01-24 09:15:23 51°10.392 2°39.842 -999 2.063723 13.449064 -0.848668
2003-01-24 09:15:28 51°10.388 2°39.811 -999 2.063618 13.448966 -0.848668
2003-01-24 09:15:33 51°10.383 2°39.779 -999 2.063618 13.448966 -0.882377
2003-01-24 09:15:37 51°10.379 2°39.754 -999 2.063408 13.447041 -0.814958
2003-01-24 09:15:43 51°10.374 2°39.716 -999 2.063408 13.447041 -0.814958
2003-01-24 09:15:48 51°10.369 2°39.684 -999 2.063513 13.44822 -0.848668
2003-01-24 09:15:53 51°10.364 2°39.652 -999 2.063408 13.447473 -0.848668
2003-01-24 09:15:58 51°10.36 2°39.62 -999 2.063408 13.447257 -0.814958
2003-01-24 09:16:02 51°10.356 2°39.595 -999 2.064038 13.452169 -0.814958
2003-01-24 09:16:08 51°10.351 2°39.557 -999 2.063198 13.44598 -0.848668
2003-01-24 09:16:13 51°10.346 2°39.526 -999 2.063198 13.44598 -0.848668
2003-01-24 09:16:18 51°10.342 2°39.494 -999 2.063723 13.449713 -0.848668
2003-01-24 09:16:22 51°10.338 2°39.469 -999 2.063513 13.448652 -0.848668
2003-01-24 09:16:27 51°10.333 2°39.437 -999 2.063408 13.447473 -0.848668
2003-01-24 09:16:33 51°10.327 2°39.399 -999 2.063513 13.44822 -0.848668
2003-01-24 09:16:37 51°10.323 2°39.374 -999 2.063828 13.451108 -0.848668
2003-01-24 09:16:42 51°10.318 2°39.342 -999 2.063828 13.451108 -0.848668
2003-01-24 09:16:48 51°10.312 2°39.305 -999 2.063198 13.44598 -0.882377
2003-01-24 09:16:53 51°10.307 2°39.273 -999 2.063828 13.450892 -0.848668
2003-01-24 09:16:57 51°10.303 2°39.247 -999 2.063303 13.446943 -0.848668
2003-01-24 09:17:03 51°10.298 2°39.209 -999 2.063723 13.450362 -0.848668
2003-01-24 09:17:08 51°10.293 2°39.177 -999 2.063303 13.447159 -0.848668
2003-01-24 09:17:13 51°10.288 2°39.146 -999 2.063303 13.447159 -0.848668
2003-01-24 09:17:17 51°10.285 2°39.12 -999 2.063828 13.451108 -0.848668
2003-01-24 09:17:23 51°10.279 2°39.082 -999 2.063513 13.449085 -0.848668
2003-01-24 09:17:28 51°10.275 2°39.05 -999 2.063513 13.448869 -0.848668
2003-01-24 09:17:33 51°10.27 2°39.019 -999 2.063618 13.449615 -0.882377
2003-01-24 09:17:38 51°10.265 2°38.987 -999 2.063513 13.449301 -0.882377
2003-01-24 09:17:43 51°10.261 2°38.955 -999 2.063513 13.449301 -0.882377
2003-01-24 09:17:47 51°10.257 2°38.93 -999 2.063513 13.449301 -0.882377
2003-01-24 09:17:53 51°10.252 2°38.891 -999 2.063618 13.449183 -0.848668
2003-01-24 09:17:58 51°10.247 2°38.859 -999 2.063618 13.450264 -0.814958
2003-01-24 09:18:03 51°10.243 2°38.828 -999 2.063198 13.447061 -0.848668
2003-01-24 09:18:07 51°10.239 2°38.802 -999 2.063408 13.448338 -0.814958
2003-01-24 09:18:13 51°10.233 2°38.764 -999 2.063408 13.448338 -0.814958
2003-01-24 09:18:18 51°10.229 2°38.732 -999 2.063828 13.451757 -0.848668
2003-01-24 09:18:23 51°10.224 2°38.7 -999 2.063198 13.447061 -0.848668
2003-01-24 09:18:28 51°10.219 2°38.669 -999 2.063513 13.450166 -0.848668
2003-01-24 09:18:33 51°10.214 2°38.637 -999 2.063198 13.447277 -0.814958
2003-01-24 09:18:38 51°10.209 2°38.605 -999 2.063513 13.449733 -0.848668
2003-01-24 09:18:43 51°10.204 2°38.574 -999 2.063513 13.449733 -0.848668
2003-01-24 09:18:47 51°10.2 2°38.548 -999 2.063303 13.44824 -0.848668
2003-01-24 09:18:53 51°10.194 2°38.51 -999 2.063513 13.449733 -0.848668
2003-01-24 09:18:58 51°10.187 2°38.48 -999 2.063303 13.448456 -0.848668
2003-01-24 09:19:03 51°10.181 2°38.448 -999 2.063093 13.44718 -0.848668
2003-01-24 09:19:07 51°10.178 2°38.422 -999 2.063093 13.446747 -0.848668
2003-01-24 09:19:13 51°10.171 2°38.385 -999 2.063093 13.446747 -0.848668
2003-01-24 09:19:18 51°10.167 2°38.352 -999 2.063408 13.448554 -0.814958
2003-01-24 09:19:23 51°10.161 2°38.321 -999 2.063513 13.450598 -0.814958
2003-01-24 09:19:27 51°10.158 2°38.295 -999 2.063093 13.44718 -0.882377
2003-01-24 09:19:33 51°10.152 2°38.258 -999 2.063513 13.44995 -0.814958
2003-01-24 09:19:38 51°10.146 2°38.226 -999 2.063723 13.451659 -0.848668
2003-01-24 09:19:43 51°10.142 2°38.193 -999 2.063723 13.451659 -0.848668
2003-01-24 09:19:47 51°10.138 2°38.168 -999 2.063303 13.448889 -0.848668
2003-01-24 09:19:53 51°10.133 2°38.13 -999 2.063303 13.448456 -0.882377
2003-01-24 09:19:58 51°10.127 2°38.099 -999 2.063408 13.449852 -0.848668
2003-01-24 09:20:03 51°10.122 2°38.067 -999 2.062883 13.445903 -0.848668
2003-01-24 09:20:08 51°10.117 2°38.035 -999 2.063408 13.449419 -0.848668
2003-01-24 09:20:13 51°10.112 2°38.003 -999 2.063408 13.449419 -0.848668
2003-01-24 09:20:18 51°10.107 2°37.971 -999 2.063303 13.448456 -0.882377
2003-01-24 09:20:23 51°10.102 2°37.94 -999 2.063198 13.448359 -0.848668
2003-01-24 09:20:27 51°10.098 2°37.914 -999 2.063093 13.448044 -0.848668
2003-01-24 09:20:33 51°10.092 2°37.876 -999 2.063198 13.448359 -0.848668
2003-01-24 09:20:38 51°10.087 2°37.844 -999 2.062988 13.446649 -0.848668
2003-01-24 09:20:43 51°10.082 2°37.813 -999 2.062988 13.446649 -0.848668
2003-01-24 09:20:48 51°10.077 2°37.781 -999 2.063513 13.450815 -0.882377
2003-01-24 09:20:53 51°10.073 2°37.749 -999 2.063198 13.448359 -0.848668
2003-01-24 09:20:57 51°10.068 2°37.724 -999 2.063303 13.449754 -0.848668
2003-01-24 09:21:03 51°10.063 2°37.686 -999 2.062988 13.447082 -0.814958
2003-01-24 09:21:07 51°10.059 2°37.66 -999 2.063198 13.448791 -0.848668
2003-01-24 09:21:13 51°10.053 2°37.622 -999 2.063198 13.448791 -0.848668
2003-01-24 09:21:18 51°10.049 2°37.59 -999 2.063303 13.449321 -0.848668
2003-01-24 09:21:23 51°10.043 2°37.559 -999 2.063303 13.44997 -0.882377
2003-01-24 09:21:28 51°10.039 2°37.526 -999 2.062988 13.447298 -0.848668
2003-01-24 09:21:33 51°10.034 2°37.495 -999 2.063198 13.449007 -0.848668
2003-01-24 09:21:37 51°10.03 2°37.47 -999 2.063198 13.449224 -0.882377
2003-01-24 09:21:43 51°10.024 2°37.431 -999 2.063198 13.449224 -0.882377
2003-01-24 09:21:48 51°10.019 2°37.4 -999 2.062988 13.447298 -0.848668
2003-01-24 09:21:53 51°10.014 2°37.368 -999 2.063198 13.448791 -0.848668
2003-01-24 09:21:58 51°10.008 2°37.337 -999 2.063093 13.448693 -0.848668
2003-01-24 09:22:03 51°10.004 2°37.305 -999 2.062673 13.445274 -0.848668
2003-01-24 09:22:08 51°9.997 2°37.274 -999 2.063303 13.44997 -0.814958
2003-01-24 09:22:13 51°9.993 2°37.242 -999 2.063303 13.44997 -0.814958
2003-01-24 09:22:17 51°9.988 2°37.217 -999 2.062883 13.446984 -0.848668
2003-01-24 09:22:22 51°9.984 2°37.185 -999 2.063093 13.448261 -0.848668
2003-01-24 09:22:28 51°9.977 2°37.148 -999 2.063303 13.450403 -0.848668
2003-01-24 09:22:33 51°9.973 2°37.116 -999 2.062778 13.446237 -0.848668
2003-01-24 09:22:37 51°9.968 2°37.091 -999 2.063198 13.44944 -0.848668
2003-01-24 09:22:43 51°9.963 2°37.052 -999 2.063198 13.44944 -0.848668
2003-01-24 09:22:48 51°9.958 2°37.02 -999 2.062883 13.446984 -0.848668
2003-01-24 09:22:53 51°9.953 2°36.989 -999 2.062988 13.44773 -0.882377
2003-01-24 09:22:58 51°9.948 2°36.958 -999 2.063093 13.448693 -0.848668
2003-01-24 09:23:03 51°9.944 2°36.927 -999 2.063303 13.450619 -0.848668
2003-01-24 09:23:07 51°9.942 2°36.903 -999 2.062988 13.447946 -0.848668
2003-01-24 09:23:13 51°9.938 2°36.867 -999 2.062988 13.447946 -0.848668
2003-01-24 09:23:18 51°9.936 2°36.837 -999 2.063408 13.450933 -0.814958
2003-01-24 09:23:23 51°9.935 2°36.807 -999 2.062988 13.448163 -0.814958
2003-01-24 09:23:28 51°9.934 2°36.778 -999 2.062988 13.448163 -0.848668
2003-01-24 09:23:33 51°9.933 2°36.75 -999 2.062988 13.447946 -0.848668
2003-01-24 09:23:38 51°9.933 2°36.721 -999 2.063303 13.450619 -0.848668
2003-01-24 09:23:42 51°9.933 2°36.698 -999 2.063303 13.450619 -0.848668
2003-01-24 09:23:48 51°9.934 2°36.663 -999 2.063198 13.44944 -0.848668
2003-01-24 09:23:53 51°9.936 2°36.635 -999 2.062883 13.4472 -0.848668
2003-01-24 09:23:57 51°9.937 2°36.612 -999 2.062988 13.448163 -0.848668
2003-01-24 09:24:03 51°9.94 2°36.578 -999 2.062988 13.448379 -0.814958
2003-01-24 09:24:07 51°9.942 2°36.556 -999 2.062988 13.448595 -0.882377
2003-01-24 09:24:13 51°9.945 2°36.522 -999 2.062988 13.448595 -0.882377
2003-01-24 09:24:18 51°9.947 2°36.493 -999 2.063093 13.449342 -0.882377
2003-01-24 09:24:23 51°9.949 2°36.465 -999 2.063198 13.450305 -0.848668
2003-01-24 09:24:27 51°9.951 2°36.443 -999 2.062673 13.446788 -0.848668
2003-01-24 09:24:33 51°9.953 2°36.409 -999 2.063093 13.449991 -0.882377
2003-01-24 09:24:37 51°9.954 2°36.386 -999 2.062883 13.44893 -0.848668
2003-01-24 09:24:43 51°9.957 2°36.352 -999 2.062883 13.44893 -0.848668
2003-01-24 09:24:47 51°9.959 2°36.33 -999 2.062778 13.448183 -0.882377
2003-01-24 09:24:53 51°9.962 2°36.296 -999 2.062988 13.450109 -0.848668
2003-01-24 09:24:58 51°9.966 2°36.269 -999 2.062673 13.447436 -0.848668
2003-01-24 09:25:03 51°9.97 2°36.241 -999 2.063198 13.451603 -0.848668
2003-01-24 09:25:07 51°9.975 2°36.22 -999 2.062988 13.450109 -0.848668
2003-01-24 09:25:13 51°9.983 2°36.188 -999 2.062988 13.450109 -0.848668
2003-01-24 09:25:18 51°9.99 2°36.161 -999 2.062673 13.447004 -0.882377
2003-01-24 09:25:23 51°9.998 2°36.134 -999 2.062778 13.447967 -0.848668
2003-01-24 09:25:28 51°10.006 2°36.106 -999 2.062883 13.448714 -0.848668
2003-01-24 09:25:33 51°10.014 2°36.079 -999 2.063198 13.450954 -0.814958
2003-01-24 09:25:37 51°10.021 2°36.058 -999 2.062358 13.445629 -0.848668
2003-01-24 09:25:43 51°10.031 2°36.025 -999 2.062358 13.445629 -0.848668
2003-01-24 09:25:47 51°10.039 2°36.004 -999 2.062673 13.447436 -0.848668
2003-01-24 09:25:53 51°10.053 2°35.974 -999 2.062883 13.44893 -0.848668
2003-01-24 09:25:58 51°10.065 2°35.95 -999 2.062673 13.447653 -0.882377
2003-01-24 09:26:03 51°10.078 2°35.928 -999 2.063198 13.451387 -0.848668
2003-01-24 09:26:08 51°10.091 2°35.905 -999 2.062463 13.445943 -0.848668
2003-01-24 09:26:13 51°10.106 2°35.885 -999 2.062463 13.445943 -0.848668
2003-01-24 09:26:18 51°10.121 2°35.865 -999 2.063093 13.45064 -0.848668
2003-01-24 09:26:23 51°10.137 2°35.847 -999 2.062883 13.449363 -0.848668
2003-01-24 09:26:27 51°10.149 2°35.834 -999 2.063093 13.451073 -0.814958
2003-01-24 09:26:33 51°10.169 2°35.814 -999 2.062568 13.447339 -0.848668
2003-01-24 09:26:37 51°10.182 2°35.803 -999 2.062673 13.447869 -0.848668
2003-01-24 09:26:43 51°10.203 2°35.788 -999 2.062673 13.447869 -0.848668
2003-01-24 09:26:47 51°10.217 2°35.78 -999 2.062883 13.449579 -0.814958
2003-01-24 09:26:53 51°10.238 2°35.769 -999 2.062358 13.445629 -0.848668
2003-01-24 09:26:58 51°10.256 2°35.762 -999 2.062883 13.449795 -0.814958
2003-01-24 09:27:03 51°10.275 2°35.758 -999 2.063093 13.451289 -0.882377
2003-01-24 09:27:07 51°10.289 2°35.756 -999 2.062568 13.447555 -0.848668
2003-01-24 09:27:13 51°10.312 2°35.755 -999 2.062568 13.447555 -0.848668
2003-01-24 09:27:18 51°10.33 2°35.757 -999 2.062463 13.446808 -0.848668
2003-01-24 09:27:23 51°10.348 2°35.761 -999 2.062568 13.447339 -0.848668
2003-01-24 09:27:28 51°10.367 2°35.767 -999 2.062673 13.448085 -0.882377
2003-01-24 09:27:33 51°10.384 2°35.775 -999 2.062988 13.450326 -0.814958
2003-01-24 09:27:38 51°10.402 2°35.786 -999 2.062568 13.447555 -0.848668
2003-01-24 09:27:42 51°10.415 2°35.795 -999 2.062568 13.447555 -0.848668
2003-01-24 09:27:48 51°10.435 2°35.81 -999 2.062568 13.447987 -0.814958
2003-01-24 09:27:53 51°10.452 2°35.823 -999 2.062673 13.448951 -0.848668
2003-01-24 09:27:57 51°10.466 2°35.833 -999 2.062568 13.448853 -0.882377
2003-01-24 09:28:03 51°10.486 2°35.848 -999 2.062778 13.450563 -0.814958
2003-01-24 09:28:08 51°10.503 2°35.86 -999 2.062673 13.450465 -0.882377
2003-01-24 09:28:13 51°10.52 2°35.873 -999 2.062673 13.450465 -0.882377
2003-01-24 09:28:17 51°10.533 2°35.883 -999 2.062673 13.450681 -0.848668
2003-01-24 09:28:23 51°10.553 2°35.899 -999 2.063093 13.453886 -0.848668
2003-01-24 09:28:28 51°10.569 2°35.913 -999 2.062568 13.450151 -0.882377
2003-01-24 09:28:33 51°10.586 2°35.928 -999 2.062463 13.449837 -0.882377
2003-01-24 09:28:37 51°10.599 2°35.939 -999 2.062673 13.451114 -0.814958
2003-01-24 09:28:43 51°10.619 2°35.955 -999 2.062673 13.451114 -0.814958
2003-01-24 09:28:48 51°10.636 2°35.969 -999 2.061938 13.446102 -0.848668
2003-01-24 09:28:53 51°10.653 2°35.982 -999 2.062778 13.452511 -0.848668
2003-01-24 09:28:57 51°10.666 2°35.992 -999 2.061938 13.446102 -0.848668
2003-01-24 09:29:03 51°10.687 2°36.008 -999 2.062148 13.447596 -0.882377
2003-01-24 09:29:07 51°10.701 2°36.019 -999 2.062883 13.452825 -0.848668
2003-01-24 09:29:13 51°10.721 2°36.034 -999 2.062883 13.452825 -0.848668
2003-01-24 09:29:18 51°10.738 2°36.047 -999 2.062043 13.446633 -0.848668
2003-01-24 09:29:23 51°10.755 2°36.06 -999 2.062568 13.450584 -0.848668
2003-01-24 09:29:27 51°10.769 2°36.071 -999 2.062043 13.446633 -0.848668
2003-01-24 09:29:33 51°10.789 2°36.087 -999 2.063093 13.454102 -0.848668
2003-01-24 09:29:38 51°10.806 2°36.101 -999 2.061938 13.445886 -0.848668
2003-01-24 09:29:43 51°10.822 2°36.115 -999 2.061938 13.445886 -0.848668
2003-01-24 09:29:46 51°10.833 2°36.123 -999 2.062148 13.447379 -0.814958
2003-01-24 09:29:53 51°10.856 2°36.143 -999 2.061938 13.445237 -0.882377
2003-01-24 09:29:57 51°10.87 2°36.155 -999 2.062673 13.450465 -0.882377
2003-01-24 09:30:03 51°10.89 2°36.172 -999 2.061938 13.445237 -0.882377
2003-01-24 09:30:08 51°10.907 2°36.186 -999 2.061833 13.444273 -0.882377
2003-01-24 09:30:13 51°10.923 2°36.201 -999 2.061833 13.444273 -0.882377
2003-01-24 09:30:17 51°10.937 2°36.212 -999 2.062463 13.448971 -0.848668
2003-01-24 09:30:23 51°10.957 2°36.229 -999 2.062358 13.448224 -0.814958
2003-01-24 09:30:27 51°10.971 2°36.241 -999 2.063303 13.45538 -0.848668
2003-01-24 09:30:33 51°10.991 2°36.258 -999 2.062043 13.4462 -0.848668
2003-01-24 09:30:38 51°11.007 2°36.272 -999 2.062358 13.448224 -0.848668
2003-01-24 09:30:43 51°11.024 2°36.287 -999 2.062358 13.448224 -0.848668
2003-01-24 09:30:48 51°11.041 2°36.301 -999 2.062043 13.445767 -0.848668
2003-01-24 09:30:53 51°11.058 2°36.316 -999 2.062568 13.449718 -0.848668
2003-01-24 09:30:58 51°11.074 2°36.33 -999 2.062043 13.4462 -0.882377
2003-01-24 09:31:03 51°11.091 2°36.344 -999 2.062778 13.451212 -0.848668
2003-01-24 09:31:07 51°11.104 2°36.356 -999 2.061728 13.443527 -0.848668
2003-01-24 09:31:13 51°11.124 2°36.373 -999 2.061728 13.443527 -0.848668
2003-01-24 09:31:17 51°11.138 2°36.384 -999 2.062988 13.452706 -0.848668
2003-01-24 09:31:23 51°11.158 2°36.401 -999 2.062043 13.445984 -0.814958
2003-01-24 09:31:28 51°11.175 2°36.415 -999 2.062358 13.448008 -0.848668
2003-01-24 09:31:33 51°11.192 2°36.429 -999 2.062463 13.448971 -0.882377
2003-01-24 09:31:38 51°11.208 2°36.443 -999 2.062463 13.448971 -0.848668
2003-01-24 09:31:43 51°11.225 2°36.457 -999 2.062463 13.448971 -0.848668
2003-01-24 09:31:48 51°11.242 2°36.471 -999 2.062148 13.44673 -0.848668
2003-01-24 09:31:53 51°11.258 2°36.485 -999 2.062253 13.447477 -0.882377
2003-01-24 09:31:58 51°11.275 2°36.499 -999 2.061833 13.444706 -0.848668
2003-01-24 09:32:03 51°11.291 2°36.513 -999 2.062358 13.448441 -0.848668
2003-01-24 09:32:08 51°11.308 2°36.527 -999 2.062148 13.446514 -0.848668
2003-01-24 09:32:13 51°11.325 2°36.54 -999 2.062148 13.446514 -0.848668
2003-01-24 09:32:17 51°11.339 2°36.551 -999 2.062253 13.447477 -0.814958
2003-01-24 09:32:23 51°11.358 2°36.567 -999 2.061938 13.445237 -0.848668
2003-01-24 09:32:28 51°11.375 2°36.581 -999 2.062568 13.449935 -0.848668
2003-01-24 09:32:33 51°11.392 2°36.595 -999 2.062253 13.447477 -0.882377
2003-01-24 09:32:37 51°11.405 2°36.606 -999 2.061938 13.445237 -0.848668
2003-01-24 09:32:43 51°11.425 2°36.623 -999 2.061938 13.445237 -0.848668
2003-01-24 09:32:47 51°11.438 2°36.634 -999 2.062358 13.448441 -0.814958
2003-01-24 09:32:53 51°11.458 2°36.651 -999 2.062253 13.447477 -0.814958
2003-01-24 09:32:58 51°11.475 2°36.666 -999 2.062148 13.44673 -0.848668
2003-01-24 09:33:03 51°11.491 2°36.681 -999 2.061203 13.439576 -0.848668
2003-01-24 09:33:07 51°11.503 2°36.693 -999 2.062883 13.452175 -0.848668
2003-01-24 09:33:13 51°11.523 2°36.712 -999 2.062883 13.452175 -0.848668
2003-01-24 09:33:17 51°11.535 2°36.724 -999 2.062673 13.450465 -0.882377
2003-01-24 09:33:23 51°11.555 2°36.742 -999 2.062148 13.44673 -0.882377
2003-01-24 09:33:27 51°11.567 2°36.755 -999 2.062043 13.445984 -0.882377
2003-01-24 09:33:33 51°11.586 2°36.773 -999 2.061833 13.444273 -0.848668
2003-01-24 09:33:38 51°11.602 2°36.789 -999 2.062043 13.4462 -0.848668
2003-01-24 09:33:42 51°11.615 2°36.801 -999 2.062043 13.4462 -0.848668
2003-01-24 09:33:47 51°11.631 2°36.817 -999 2.062043 13.445984 -0.848668
2003-01-24 09:33:53 51°11.65 2°36.835 -999 2.062043 13.4462 -0.848668
2003-01-24 09:33:57 51°11.663 2°36.848 -999 2.062148 13.446947 -0.848668
2003-01-24 09:34:03 51°11.682 2°36.866 -999 2.062148 13.447163 -0.848668
2003-01-24 09:34:07 51°11.695 2°36.878 -999 2.061728 13.444392 -0.882377
2003-01-24 09:34:13 51°11.714 2°36.896 -999 2.061728 13.444392 -0.882377
2003-01-24 09:34:17 51°11.727 2°36.909 -999 2.062253 13.44791 -0.882377
2003-01-24 09:34:23 51°11.746 2°36.928 -999 2.062148 13.447596 -0.882377
2003-01-24 09:34:28 51°11.762 2°36.943 -999 2.061203 13.440441 -0.848668
2003-01-24 09:34:33 51°11.777 2°36.959 -999 2.062358 13.44909 -0.848668
2003-01-24 09:34:38 51°11.793 2°36.974 -999 2.061728 13.444392 -0.848668
2003-01-24 09:34:43 51°11.809 2°36.99 -999 2.061728 13.444392 -0.848668
2003-01-24 09:34:48 51°11.825 2°37.005 -999 2.062358 13.448873 -0.882377
2003-01-24 09:34:53 51°11.841 2°37.02 -999 2.061833 13.445139 -0.848668
2003-01-24 09:34:58 51°11.858 2°37.035 -999 2.062253 13.448343 -0.882377
2003-01-24 09:35:03 51°11.874 2°37.051 -999 2.061938 13.446318 -0.848668
2003-01-24 09:35:07 51°11.886 2°37.063 -999 2.062568 13.450367 -0.848668
2003-01-24 09:35:13 51°11.905 2°37.081 -999 2.062568 13.450367 -0.848668
2003-01-24 09:35:17 51°11.919 2°37.093 -999 2.062148 13.447812 -0.848668
2003-01-24 09:35:22 51°11.935 2°37.108 -999 2.061623 13.443861 -0.848668
2003-01-24 09:35:27 51°11.951 2°37.124 -999 2.061833 13.445139 -0.848668
2003-01-24 09:35:33 51°11.97 2°37.141 -999 2.061938 13.446102 -0.848668
2003-01-24 09:35:38 51°11.987 2°37.156 -999 2.062043 13.447065 -0.848668
2003-01-24 09:35:42 51°12 2°37.166 -999 2.062043 13.447065 -0.848668
2003-01-24 09:35:48 51°12.021 2°37.18 -999 2.062148 13.448245 -0.848668
2003-01-24 09:35:53 51°12.038 2°37.191 -999 2.061308 13.44162 -0.814958
2003-01-24 09:35:58 51°12.055 2°37.202 -999 2.062358 13.449523 -0.814958
2003-01-24 09:36:03 51°12.073 2°37.214 -999 2.061938 13.446967 -0.848668
2003-01-24 09:36:08 51°12.09 2°37.225 -999 2.062043 13.447498 -0.882377
2003-01-24 09:36:13 51°12.108 2°37.236 -999 2.062043 13.447498 -0.882377
2003-01-24 09:36:17 51°12.121 2°37.245 -999 2.061518 13.443763 -0.814958
2003-01-24 09:36:23 51°12.143 2°37.258 -999 2.061833 13.445788 -0.848668
2003-01-24 09:36:28 51°12.16 2°37.268 -999 2.061833 13.44622 -0.848668
2003-01-24 09:36:33 51°12.177 2°37.28 -999 2.061518 13.44333 -0.848668
2003-01-24 09:36:37 51°12.191 2°37.289 -999 2.061308 13.44162 -0.882377
2003-01-24 09:36:43 51°12.212 2°37.303 -999 2.061308 13.44162 -0.882377
2003-01-24 09:36:47 51°12.226 2°37.313 -999 2.062568 13.4508 -0.848668
2003-01-24 09:36:53 51°12.247 2°37.326 -999 2.062253 13.448343 -0.848668
2003-01-24 09:36:58 51°12.264 2°37.338 -999 2.061203 13.440441 -0.848668
2003-01-24 09:37:03 51°12.281 2°37.35 -999 2.061728 13.444608 -0.814958
2003-01-24 09:37:08 51°12.299 2°37.361 -999 2.062463 13.450053 -0.848668
2003-01-24 09:37:13 51°12.316 2°37.372 -999 2.062463 13.450053 -0.848668
2003-01-24 09:37:17 51°12.33 2°37.382 -999 2.061413 13.442584 -0.882377
2003-01-24 09:37:23 51°12.351 2°37.395 -999 2.061728 13.444608 -0.848668
2003-01-24 09:37:28 51°12.368 2°37.407 -999 2.061938 13.446535 -0.848668
2003-01-24 09:37:33 51°12.386 2°37.419 -999 2.061203 13.440657 -0.814958
2003-01-24 09:37:38 51°12.403 2°37.43 -999 2.062358 13.449306 -0.848668
2003-01-24 09:37:43 51°12.42 2°37.442 -999 2.062358 13.449306 -0.848668
2003-01-24 09:37:48 51°12.438 2°37.454 -999 2.061518 13.442898 -0.848668
2003-01-24 09:37:53 51°12.455 2°37.465 -999 2.061833 13.445571 -0.848668
2003-01-24 09:37:57 51°12.469 2°37.476 -999 2.061623 13.444077 -0.848668
2003-01-24 09:38:02 51°12.487 2°37.487 -999 2.061728 13.444608 -0.848668
2003-01-24 09:38:08 51°12.507 2°37.501 -999 2.062568 13.451233 -0.848668
2003-01-24 09:38:13 51°12.525 2°37.512 -999 2.062568 13.451233 -0.848668
2003-01-24 09:38:17 51°12.539 2°37.522 -999 2.061413 13.443016 -0.848668
2003-01-24 09:38:23 51°12.559 2°37.537 -999 2.062148 13.448245 -0.848668
2003-01-24 09:38:28 51°12.577 2°37.548 -999 2.061623 13.44451 -0.848668
2003-01-24 09:38:33 51°12.594 2°37.561 -999 2.061728 13.445257 -0.882377
2003-01-24 09:38:38 51°12.612 2°37.572 -999 2.062043 13.447714 -0.848668
2003-01-24 09:38:43 51°12.629 2°37.584 -999 2.062043 13.447714 -0.848668
2003-01-24 09:38:48 51°12.646 2°37.596 -999 2.062043 13.447714 -0.848668
2003-01-24 09:38:53 51°12.664 2°37.608 -999 2.061833 13.44622 -0.848668
2003-01-24 09:38:57 51°12.678 2°37.617 -999 2.061833 13.44622 -0.814958
2003-01-24 09:39:03 51°12.699 2°37.632 -999 2.061938 13.446967 -0.848668
2003-01-24 09:39:08 51°12.716 2°37.643 -999 2.061623 13.444726 -0.848668
2003-01-24 09:39:13 51°12.733 2°37.655 -999 2.061623 13.444726 -0.848668
2003-01-24 09:39:18 51°12.751 2°37.667 -999 2.060783 13.438534 -0.848668
2003-01-24 09:39:23 51°12.769 2°37.678 -999 2.062253 13.449641 -0.814958
2003-01-24 09:39:27 51°12.783 2°37.688 -999 2.061413 13.443232 -0.882377
2003-01-24 09:39:33 51°12.803 2°37.703 -999 2.061623 13.444726 -0.848668
2003-01-24 09:39:38 51°12.821 2°37.714 -999 2.061623 13.444943 -0.848668
2003-01-24 09:39:43 51°12.838 2°37.727 -999 2.061623 13.444943 -0.848668
2003-01-24 09:39:48 51°12.855 2°37.739 -999 2.061518 13.444196 -0.882377
2003-01-24 09:39:53 51°12.873 2°37.751 -999 2.061203 13.441738 -0.848668
2003-01-24 09:39:57 51°12.887 2°37.761 -999 2.061833 13.446437 -0.848668
2003-01-24 09:40:03 51°12.906 2°37.778 -999 2.061833 13.44622 -0.848668
2003-01-24 09:40:08 51°12.922 2°37.794 -999 2.060888 13.439281 -0.814958
2003-01-24 09:40:13 51°12.938 2°37.809 -999 2.060888 13.439281 -0.814958
2003-01-24 09:40:17 51°12.951 2°37.822 -999 2.062148 13.448461 -0.848668
2003-01-24 09:40:23 51°12.97 2°37.842 -999 2.062463 13.450702 -0.848668
2003-01-24 09:40:27 51°12.982 2°37.855 -999 2.060993 13.440245 -0.814958
2003-01-24 09:40:33 51°13.001 2°37.876 -999 2.061728 13.44569 -0.882377
2003-01-24 09:40:37 51°13.014 2°37.888 -999 2.061518 13.443979 -0.848668
2003-01-24 09:40:43 51°13.032 2°37.908 -999 2.061518 13.443979 -0.848668
2003-01-24 09:40:48 51°13.048 2°37.924 -999 2.060888 13.439498 -0.814958